Observation data for Caprock Canyons on 11/13/2019      Previous  Date       Current Mesonet Observations  Soil Data  Daily Summary Page  Observations in Plain Language
KQU1 130600Z 22015KT 02/M11 A3014 RMK A01 T00221112  RH  036%=      5-min Rain = 0
KQU1 130601Z 22016KT 02/M11 A3014 RMK A01 T00221112  RH  036%=      5-min Rain = 0
KQU1 130602Z 22016KT 02/M11 A3014 RMK A01 T00231113  RH  036%=      5-min Rain = 0
KQU1 130603Z 21016G21KT 02/M11 A3014 RMK A01 T00231114  RH  036%=      5-min Rain = 0
KQU1 130604Z 22013KT 02/M11 A3014 RMK A01 T00231113  RH  036%=      5-min Rain = 0
KQU1 130605Z 22015G20KT 02/M11 A3013 RMK A01 T00231114  RH  036%=      5-min Rain = 0
KQU1 130606Z 22015KT 02/M11 A3013 RMK A01 T00231114  RH  036%=      5-min Rain = 0
KQU1 130607Z 22015KT 02/M11 A3013 RMK A01 T00231114  RH  036%=      5-min Rain = 0
KQU1 130608Z 21015KT 02/M11 A3013 RMK A01 T00231114  RH  035%=      5-min Rain = 0
KQU1 130609Z 22017G22KT 02/M12 A3013 RMK A01 T00231115  RH  035%=      5-min Rain = 0
KQU1 130610Z 21015KT 02/M12 A3013 RMK A01 T00241115  RH  035%=      5-min Rain = 0
KQU1 130611Z 21015KT 02/M12 A3013 RMK A01 T00241115  RH  035%=      5-min Rain = 0
KQU1 130612Z 22019KT 02/M12 A3013 RMK A01 T00241115  RH  035%=      5-min Rain = 0
KQU1 130613Z 22019KT 03/M12 A3013 RMK A01 T00251116  RH  034%=      5-min Rain = 0
KQU1 130614Z 22019G24KT 03/M12 A3013 RMK A01 T00261116  RH  034%=      5-min Rain = 0
KQU1 130615Z 21019KT 03/M12 A3013 RMK A01 T00261116  RH  034%=      5-min Rain = 0
KQU1 130616Z 22017KT 03/M12 A3013 RMK A01 T00261116  RH  034%=      5-min Rain = 0
KQU1 130617Z 22018KT 03/M12 A3013 RMK A01 T00261116  RH  034%=      5-min Rain = 0
KQU1 130618Z 22019G24KT 03/M12 A3012 RMK A01 T00261117  RH  034%=      5-min Rain = 0
KQU1 130619Z 21018KT 03/M12 A3012 RMK A01 T00261117  RH  034%=      5-min Rain = 0
KQU1 130620Z 22019G25KT 03/M12 A3012 RMK A01 T00261117  RH  034%=      5-min Rain = 0
KQU1 130621Z 22019KT 03/M12 A3012 RMK A01 T00261117  RH  034%=      5-min Rain = 0
KQU1 130622Z 22019G25KT 03/M12 A3012 RMK A01 T00261117  RH  034%=      5-min Rain = 0
KQU1 130623Z 22021KT 03/M12 A3012 RMK A01 T00261118  RH  034%=      5-min Rain = 0
KQU1 130624Z 22019G25KT 03/M12 A3012 RMK A01 T00271118  RH  034%=      5-min Rain = 0
KQU1 130625Z 22020KT 03/M12 A3012 RMK A01 T00271118  RH  034%=      5-min Rain = 0
KQU1 130626Z 22017KT 03/M12 A3012 RMK A01 T00261118  RH  034%=      5-min Rain = 0
KQU1 130627Z 22021G26KT 03/M12 A3012 RMK A01 T00261118  RH  034%=      5-min Rain = 0
KQU1 130628Z 22019G26KT 03/M12 A3012 RMK A01 T00271118  RH  034%=      5-min Rain = 0
KQU1 130629Z 22023KT 03/M12 A3012 RMK A01 T00261118  RH  034%=      5-min Rain = 0
KQU1 130630Z 22019G25KT 03/M12 A3012 RMK A01 T00271118  RH  033%=      5-min Rain = 0
KQU1 130631Z 22022KT 03/M12 A3012 RMK A01 T00271118  RH  033%=      5-min Rain = 0
KQU1 130632Z 21021G27KT 03/M12 A3012 RMK A01 T00271118  RH  033%=      5-min Rain = 0
KQU1 130633Z 21021G29KT 03/M12 A3012 RMK A01 T00271119  RH  033%=      5-min Rain = 0
KQU1 130634Z 22018KT 03/M12 A3012 RMK A01 T00261119  RH  034%=      5-min Rain = 0
KQU1 130635Z 22019G24KT 03/M12 A3012 RMK A01 T00261118  RH  034%=      5-min Rain = 0
KQU1 130636Z 22022KT 03/M12 A3012 RMK A01 T00261118  RH  034%=      5-min Rain = 0
KQU1 130637Z 22021G26KT 03/M12 A3012 RMK A01 T00261119  RH  034%=      5-min Rain = 0
KQU1 130638Z 22023KT 03/M12 A3012 RMK A01 T00261119  RH  034%=      5-min Rain = 0
KQU1 130639Z 22023KT 03/M12 A3011 RMK A01 T00271119  RH  033%=      5-min Rain = 0
KQU1 130640Z 22021G26KT 03/M12 A3011 RMK A01 T00271119  RH  033%=      5-min Rain = 0
KQU1 130641Z 23021G27KT 03/M12 A3011 RMK A01 T00271120  RH  033%=      5-min Rain = 0
KQU1 130642Z 23021G26KT 03/M12 A3011 RMK A01 T00271120  RH  033%=      5-min Rain = 0
KQU1 130643Z 22020KT 03/M12 A3011 RMK A01 T00271120  RH  033%=      5-min Rain = 0
KQU1 130644Z 22020G26KT 03/M12 A3011 RMK A01 T00271120  RH  033%=      5-min Rain = 0
KQU1 130645Z 22019G24KT 03/M12 A3011 RMK A01 T00261120  RH  033%=      5-min Rain = 0
KQU1 130646Z 22020KT 03/M12 A3011 RMK A01 T00261120  RH  033%=      5-min Rain = 0
KQU1 130647Z 22019KT 03/M12 A3011 RMK A01 T00261120  RH  033%=      5-min Rain = 0
KQU1 130648Z 22020KT 03/M12 A3011 RMK A01 T00261120  RH  033%=      5-min Rain = 0
KQU1 130649Z 22018G23KT 03/M12 A3011 RMK A01 T00261120  RH  033%=      5-min Rain = 0
KQU1 130650Z 22018KT 03/M12 A3011 RMK A01 T00251119  RH  034%=      5-min Rain = 0
KQU1 130651Z 22019KT 03/M12 A3011 RMK A01 T00251120  RH  034%=      5-min Rain = 0
KQU1 130652Z 22018KT 03/M12 A3011 RMK A01 T00251120  RH  034%=      5-min Rain = 0
KQU1 130653Z 22019KT 02/M12 A3011 RMK A01 T00241120  RH  034%=      5-min Rain = 0
KQU1 130654Z 22019KT 02/M12 A3011 RMK A01 T00241120  RH  034%=      5-min Rain = 0
KQU1 130655Z 21017G22KT 02/M12 A3011 RMK A01 T00241120  RH  034%=      5-min Rain = 0
KQU1 130656Z 22019G24KT 02/M12 A3011 RMK A01 T00241120  RH  034%=      5-min Rain = 0
KQU1 130657Z 22019KT 02/M12 A3011 RMK A01 T00241120  RH  034%=      5-min Rain = 0
KQU1 130658Z 22018KT 02/M12 A3011 RMK A01 T00241120  RH  034%=      5-min Rain = 0
KQU1 130659Z 22018KT 02/M12 A3011 RMK A01 T00241120  RH  034%=      5-min Rain = 0
KQU1 130700Z 22018KT 02/M12 A3011 RMK A01 T00241120  RH  034%=      5-min Rain = 0
KQU1 130701Z 22019KT 02/M12 A301 RMK A01 T00241121  RH  033%=      5-min Rain = 0
KQU1 130702Z 22017KT 02/M12 A301 RMK A01 T00241121  RH  033%=      5-min Rain = 0
KQU1 130703Z 22018KT 02/M12 A301 RMK A01 T00241121  RH  033%=      5-min Rain = 0
KQU1 130704Z 22018KT 02/M12 A301 RMK A01 T00241121  RH  033%=      5-min Rain = 0
KQU1 130705Z 22018KT 02/M12 A301 RMK A01 T00241121  RH  033%=      5-min Rain = 0
KQU1 130706Z 22017KT 02/M12 A301 RMK A01 T00241121  RH  033%=      5-min Rain = 0
KQU1 130707Z 22018KT 02/M12 A301 RMK A01 T00241121  RH  033%=      5-min Rain = 0
KQU1 130708Z 22017KT 02/M12 A301 RMK A01 T00241121  RH  033%=      5-min Rain = 0
KQU1 130709Z 22017KT 02/M12 A301 RMK A01 T00241121  RH  033%=      5-min Rain = 0
KQU1 130710Z 22016G21KT 02/M12 A301 RMK A01 T00241121  RH  033%=      5-min Rain = 0
KQU1 130711Z 22017KT 02/M12 A301 RMK A01 T00241121  RH  033%=      5-min Rain = 0
KQU1 130712Z 22018G23KT 02/M12 A301 RMK A01 T00241122  RH  033%=      5-min Rain = 0
KQU1 130713Z 22017KT 02/M12 A301 RMK A01 T00241122  RH  033%=      5-min Rain = 0
KQU1 130714Z 22017KT 02/M12 A301 RMK A01 T00241122  RH  033%=      5-min Rain = 0
KQU1 130715Z 22015KT 02/M12 A301 RMK A01 T00241122  RH  033%=      5-min Rain = 0
KQU1 130716Z 22016KT 02/M12 A301 RMK A01 T00241122  RH  033%=      5-min Rain = 0
KQU1 130717Z 22019KT 02/M12 A301 RMK A01 T00241122  RH  033%=      5-min Rain = 0
KQU1 130718Z 22017KT 02/M12 A301 RMK A01 T00241122  RH  033%=      5-min Rain = 0
KQU1 130719Z 22018KT 02/M12 A301 RMK A01 T00241122  RH  033%=      5-min Rain = 0
KQU1 130720Z 21014KT 02/M12 A301 RMK A01 T00241122  RH  033%=      5-min Rain = 0
KQU1 130721Z 22016G21KT 02/M12 A301 RMK A01 T00241122  RH  033%=      5-min Rain = 0
KQU1 130722Z 22017KT 02/M12 A301 RMK A01 T00241122  RH  033%=      5-min Rain = 0
KQU1 130723Z 22017KT 02/M12 A301 RMK A01 T00241122  RH  033%=      5-min Rain = 0
KQU1 130724Z 21017KT 02/M12 A301 RMK A01 T00241122  RH  033%=      5-min Rain = 0
KQU1 130725Z 22018KT 02/M12 A301 RMK A01 T00241122  RH  033%=      5-min Rain = 0
KQU1 130726Z 22018KT 02/M12 A301 RMK A01 T00241122  RH  033%=      5-min Rain = 0
KQU1 130727Z 22019KT 02/M12 A301 RMK A01 T00241123  RH  033%=      5-min Rain = 0
KQU1 130728Z 22020G26KT 02/M12 A301 RMK A01 T00241123  RH  033%=      5-min Rain = 0
KQU1 130729Z 22015KT 03/M12 A301 RMK A01 T00251123  RH  033%=      5-min Rain = 0
KQU1 130730Z 22018KT 02/M12 A301 RMK A01 T00241123  RH  033%=      5-min Rain = 0
KQU1 130731Z 21018G23KT 02/M12 A301 RMK A01 T00241123  RH  033%=      5-min Rain = 0
KQU1 130732Z 22017KT 02/M12 A301 RMK A01 T00241123  RH  033%=      5-min Rain = 0
KQU1 130733Z 22017G23KT 02/M12 A301 RMK A01 T00241123  RH  033%=      5-min Rain = 0
KQU1 130734Z 21018KT 02/M12 A301 RMK A01 T00241123  RH  033%=      5-min Rain = 0
KQU1 130735Z 21018KT 02/M12 A301 RMK A01 T00241123  RH  033%=      5-min Rain = 0
KQU1 130736Z 22018KT 02/M12 A301 RMK A01 T00241123  RH  033%=      5-min Rain = 0
KQU1 130737Z 21016KT 02/M12 A301 RMK A01 T00241123  RH  033%=      5-min Rain = 0
KQU1 130738Z 22016KT 02/M12 A301 RMK A01 T00241123  RH  033%=      5-min Rain = 0
KQU1 130739Z 22016KT 02/M12 A301 RMK A01 T00231123  RH  033%=      5-min Rain = 0
KQU1 130740Z 21016KT 02/M12 A301 RMK A01 T00231123  RH  033%=      5-min Rain = 0
KQU1 130741Z 22016G22KT 02/M12 A301 RMK A01 T00231123  RH  033%=      5-min Rain = 0
KQU1 130742Z 22017G22KT 02/M12 A301 RMK A01 T00231123  RH  033%=      5-min Rain = 0
KQU1 130743Z 21017KT 02/M12 A301 RMK A01 T00241124  RH  033%=      5-min Rain = 0
KQU1 130744Z 21019KT 02/M12 A301 RMK A01 T00241124  RH  033%=      5-min Rain = 0
KQU1 130745Z 22016KT 02/M12 A301 RMK A01 T00241124  RH  033%=      5-min Rain = 0
KQU1 130746Z 22016KT 02/M12 A301 RMK A01 T00241124  RH  033%=      5-min Rain = 0
KQU1 130747Z 22015KT 02/M12 A301 RMK A01 T00231124  RH  033%=      5-min Rain = 0
KQU1 130748Z 22017G22KT 02/M12 A301 RMK A01 T00231124  RH  033%=      5-min Rain = 0
KQU1 130749Z 22017KT 02/M12 A301 RMK A01 T00231124  RH  033%=      5-min Rain = 0
KQU1 130750Z 22018G25KT 02/M12 A301 RMK A01 T00231124  RH  033%=      5-min Rain = 0
KQU1 130751Z 22017KT 02/M13 A301 RMK A01 T00241125  RH  032%=      5-min Rain = 0
KQU1 130752Z 22017KT 02/M13 A301 RMK A01 T00241125  RH  032%=      5-min Rain = 0
KQU1 130753Z 21017KT 02/M13 A301 RMK A01 T00241125  RH  032%=      5-min Rain = 0
KQU1 130754Z 22018KT 02/M13 A301 RMK A01 T00241126  RH  032%=      5-min Rain = 0
KQU1 130755Z 23016KT 03/M13 A301 RMK A01 T00251126  RH  032%=      5-min Rain = 0
KQU1 130756Z 23013KT 02/M13 A301 RMK A01 T00241126  RH  032%=      5-min Rain = 0
KQU1 130757Z 22014KT 02/M13 A301 RMK A01 T00241126  RH  032%=      5-min Rain = 0
KQU1 130758Z 22013KT 02/M13 A301 RMK A01 T00241126  RH  032%=      5-min Rain = 0
KQU1 130759Z 22014KT 02/M13 A301 RMK A01 T00241127  RH  032%=      5-min Rain = 0
KQU1 130800Z 22013KT 02/M13 A301 RMK A01 T00231127  RH  032%=      5-min Rain = 0
KQU1 130801Z 22012G17KT 02/M13 A3009 RMK A01 T00231127  RH  032%=      5-min Rain = 0
KQU1 130802Z 21015KT 02/M13 A3009 RMK A01 T00231127  RH  032%=      5-min Rain = 0
KQU1 130803Z 22012KT 02/M13 A3009 RMK A01 T00231127  RH  032%=      5-min Rain = 0
KQU1 130804Z 22011KT 02/M13 A3009 RMK A01 T00231127  RH  032%=      5-min Rain = 0
KQU1 130805Z 22015KT 02/M13 A3009 RMK A01 T00231128  RH  032%=      5-min Rain = 0
KQU1 130806Z 21013KT 02/M13 A3009 RMK A01 T00231128  RH  032%=      5-min Rain = 0
KQU1 130807Z 21012KT 02/M13 A301 RMK A01 T00221127  RH  032%=      5-min Rain = 0
KQU1 130808Z 21011KT 02/M13 A301 RMK A01 T00221128  RH  032%=      5-min Rain = 0
KQU1 130809Z 22013KT 02/M13 A301 RMK A01 T00211128  RH  032%=      5-min Rain = 0
KQU1 130810Z 21013KT 02/M13 A301 RMK A01 T00211128  RH  032%=      5-min Rain = 0
KQU1 130811Z 22012KT 02/M13 A301 RMK A01 T00211129  RH  032%=      5-min Rain = 0
KQU1 130812Z 21013KT 02/M13 A301 RMK A01 T00211129  RH  032%=      5-min Rain = 0
KQU1 130813Z 21014KT 02/M13 A301 RMK A01 T00211129  RH  032%=      5-min Rain = 0
KQU1 130814Z 21015KT 02/M13 A301 RMK A01 T00211129  RH  032%=      5-min Rain = 0
KQU1 130815Z 20012KT 02/M13 A301 RMK A01 T00221129  RH  032%=      5-min Rain = 0
KQU1 130816Z 21011KT 02/M13 A301 RMK A01 T00211129  RH  032%=      5-min Rain = 0
KQU1 130817Z 21013KT 02/M13 A301 RMK A01 T00211129  RH  032%=      5-min Rain = 0
KQU1 130818Z 20011KT 02/M13 A301 RMK A01 T00201129  RH  032%=      5-min Rain = 0
KQU1 130819Z 20012KT 02/M13 A301 RMK A01 T00201130  RH  032%=      5-min Rain = 0
KQU1 130820Z 20013G18KT 02/M13 A301 RMK A01 T00201130  RH  032%=      5-min Rain = 0
KQU1 130821Z 21012KT 02/M13 A301 RMK A01 T00211130  RH  032%=      5-min Rain = 0
KQU1 130822Z 20013KT 02/M13 A301 RMK A01 T00201131  RH  032%=      5-min Rain = 0
KQU1 130823Z 20016KT 02/M13 A301 RMK A01 T00211131  RH  031%=      5-min Rain = 0
KQU1 130824Z 21014KT 02/M13 A301 RMK A01 T00211132  RH  031%=      5-min Rain = 0
KQU1 130825Z 20017KT 02/M13 A301 RMK A01 T00211133  RH  031%=      5-min Rain = 0
KQU1 130826Z 21015G21KT 02/M13 A301 RMK A01 T00211133  RH  031%=      5-min Rain = 0
KQU1 130827Z 20020KT 02/M13 A301 RMK A01 T00211134  RH  031%=      5-min Rain = 0
KQU1 130828Z 21019KT 02/M13 A301 RMK A01 T00221134  RH  031%=      5-min Rain = 0
KQU1 130829Z 20020KT 02/M13 A301 RMK A01 T00221133  RH  031%=      5-min Rain = 0
KQU1 130830Z 21018KT 02/M13 A301 RMK A01 T00221133  RH  031%=      5-min Rain = 0
KQU1 130831Z 20016KT 02/M13 A301 RMK A01 T00221133  RH  031%=      5-min Rain = 0
KQU1 130832Z 20012KT 02/M13 A301 RMK A01 T00211133  RH  031%=      5-min Rain = 0
KQU1 130833Z 21013KT 02/M13 A301 RMK A01 T00201133  RH  031%=      5-min Rain = 0
KQU1 130834Z 21015KT 02/M13 A3009 RMK A01 T00201132  RH  031%=      5-min Rain = 0
KQU1 130835Z 21013KT 02/M13 A301 RMK A01 T00201132  RH  031%=      5-min Rain = 0
KQU1 130836Z 21014KT 02/M13 A301 RMK A01 T00201132  RH  032%=      5-min Rain = 0
KQU1 130837Z 21013KT 02/M13 A3009 RMK A01 T00201131  RH  032%=      5-min Rain = 0
KQU1 130838Z 21013KT 02/M13 A3009 RMK A01 T00201131  RH  032%=      5-min Rain = 0
KQU1 130839Z 21013KT 02/M13 A3009 RMK A01 T00191131  RH  032%=      5-min Rain = 0
KQU1 130840Z 21013KT 02/M13 A3009 RMK A01 T00191130  RH  032%=      5-min Rain = 0
KQU1 130841Z 21012KT 02/M13 A3009 RMK A01 T00191130  RH  032%=      5-min Rain = 0
KQU1 130842Z 21011G16KT 02/M13 A3009 RMK A01 T00191130  RH  032%=      5-min Rain = 0
KQU1 130843Z 21010KT 02/M13 A3009 RMK A01 T00181130  RH  032%=      5-min Rain = 0
KQU1 130844Z 21010KT 02/M13 A3009 RMK A01 T00181129  RH  033%=      5-min Rain = 0
KQU1 130845Z 21011KT 02/M13 A3009 RMK A01 T00181129  RH  033%=      5-min Rain = 0
KQU1 130846Z 21014KT 02/M13 A3009 RMK A01 T00181129  RH  033%=      5-min Rain = 0
KQU1 130847Z 20011KT 02/M13 A3009 RMK A01 T00191129  RH  033%=      5-min Rain = 0
KQU1 130848Z 20012KT 02/M13 A3009 RMK A01 T00191129  RH  033%=      5-min Rain = 0
KQU1 130849Z 21013KT 02/M13 A3009 RMK A01 T00191128  RH  033%=      5-min Rain = 0
KQU1 130850Z 21013KT 02/M13 A3008 RMK A01 T00191128  RH  033%=      5-min Rain = 0
KQU1 130851Z 20016KT 02/M13 A3008 RMK A01 T00191128  RH  033%=      5-min Rain = 0
KQU1 130852Z 21016KT 02/M13 A3008 RMK A01 T00201128  RH  033%=      5-min Rain = 0
KQU1 130853Z 20014KT 02/M13 A3008 RMK A01 T00201127  RH  033%=      5-min Rain = 0
KQU1 130854Z 19013KT 02/M13 A3008 RMK A01 T00201127  RH  033%=      5-min Rain = 0
KQU1 130855Z 20016KT 02/M13 A3008 RMK A01 T00201127  RH  033%=      5-min Rain = 0
KQU1 130856Z 20014KT 02/M13 A3007 RMK A01 T00201126  RH  033%=      5-min Rain = 0
KQU1 130857Z 20014G20KT 02/M13 A3007 RMK A01 T00201126  RH  033%=      5-min Rain = 0
KQU1 130858Z 19011G16KT 02/M13 A3007 RMK A01 T00191126  RH  033%=      5-min Rain = 0
KQU1 130859Z 19012KT 02/M13 A3007 RMK A01 T00191126  RH  033%=      5-min Rain = 0
KQU1 130900Z 19011KT 02/M13 A3007 RMK A01 T00181126  RH  033%=      5-min Rain = 0
KQU1 130901Z 19010G16KT 02/M13 A3007 RMK A01 T00171125  RH  034%=      5-min Rain = 0
KQU1 130902Z 19011KT 02/M13 A3007 RMK A01 T00171125  RH  034%=      5-min Rain = 0
KQU1 130903Z 19011KT 02/M13 A3007 RMK A01 T00161125  RH  034%=      5-min Rain = 0
KQU1 130904Z 19011KT 02/M12 A3007 RMK A01 T00161124  RH  035%=      5-min Rain = 0
KQU1 130905Z 19014KT 02/M12 A3007 RMK A01 T00151123  RH  035%=      5-min Rain = 0
KQU1 130906Z 18011KT 02/M12 A3007 RMK A01 T00151123  RH  035%=      5-min Rain = 0
KQU1 130907Z 18012KT 02/M12 A3007 RMK A01 T00151123  RH  035%=      5-min Rain = 0
KQU1 130908Z 18012KT 01/M12 A3007 RMK A01 T00141122  RH  035%=      5-min Rain = 0
KQU1 130909Z 18010KT 01/M12 A3007 RMK A01 T00141122  RH  035%=      5-min Rain = 0
KQU1 130910Z 19012KT 01/M12 A3007 RMK A01 T00141122  RH  035%=      5-min Rain = 0
KQU1 130911Z 18012KT 01/M12 A3007 RMK A01 T00141122  RH  036%=      5-min Rain = 0
KQU1 130912Z 18010KT 01/M12 A3007 RMK A01 T00141121  RH  036%=      5-min Rain = 0
KQU1 130913Z 18011KT 01/M12 A3007 RMK A01 T00131121  RH  036%=      5-min Rain = 0
KQU1 130914Z 18010KT 01/M12 A3007 RMK A01 T00121120  RH  037%=      5-min Rain = 0
KQU1 130915Z 19011KT 01/M12 A3007 RMK A01 T00111120  RH  037%=      5-min Rain = 0
KQU1 130916Z 19011KT 01/M12 A3007 RMK A01 T00111119  RH  037%=      5-min Rain = 0
KQU1 130917Z 19012KT 01/M12 A3006 RMK A01 T00111119  RH  037%=      5-min Rain = 0
KQU1 130918Z 19012KT 01/M12 A3006 RMK A01 T00111118  RH  037%=      5-min Rain = 0
KQU1 130919Z 19011KT 01/M12 A3006 RMK A01 T00121118  RH  037%=      5-min Rain = 0
KQU1 130920Z 19010KT 01/M12 A3006 RMK A01 T00121118  RH  037%=      5-min Rain = 0
KQU1 130921Z 18010KT 01/M12 A3006 RMK A01 T00121117  RH  038%=      5-min Rain = 0
KQU1 130922Z 19011KT 01/M12 A3006 RMK A01 T00111116  RH  038%=      5-min Rain = 0
KQU1 130923Z 19011KT 01/M12 A3006 RMK A01 T00121116  RH  038%=      5-min Rain = 0
KQU1 130924Z 19011KT 01/M12 A3006 RMK A01 T00121115  RH  038%=      5-min Rain = 0
KQU1 130925Z 19011KT 01/M12 A3006 RMK A01 T00121115  RH  038%=      5-min Rain = 0
KQU1 130926Z 19012KT 01/M12 A3006 RMK A01 T00131115  RH  038%=      5-min Rain = 0
KQU1 130927Z 19012KT 01/M11 A3006 RMK A01 T00131114  RH  038%=      5-min Rain = 0
KQU1 130928Z 19010KT 01/M11 A3006 RMK A01 T00141114  RH  038%=      5-min Rain = 0
KQU1 130929Z 19010KT 01/M11 A3006 RMK A01 T00131114  RH  038%=      5-min Rain = 0
KQU1 130930Z 19011KT 01/M11 A3005 RMK A01 T00131113  RH  039%=      5-min Rain = 0
KQU1 130931Z 19010KT 01/M11 A3005 RMK A01 T00121112  RH  039%=      5-min Rain = 0
KQU1 130932Z 19010KT 01/M11 A3005 RMK A01 T00121112  RH  039%=      5-min Rain = 0
KQU1 130933Z 19011KT 01/M11 A3005 RMK A01 T00121112  RH  039%=      5-min Rain = 0
KQU1 130934Z 19010KT 01/M11 A3005 RMK A01 T00131112  RH  039%=      5-min Rain = 0
KQU1 130935Z 20010KT 01/M11 A3005 RMK A01 T00131111  RH  039%=      5-min Rain = 0
KQU1 130936Z 20013KT 01/M11 A3005 RMK A01 T00131110  RH  040%=      5-min Rain = 0
KQU1 130937Z 19011KT 01/M11 A3005 RMK A01 T00141110  RH  039%=      5-min Rain = 0
KQU1 130938Z 20013G18KT 02/M11 A3004 RMK A01 T00151109  RH  039%=      5-min Rain = 0
KQU1 130939Z 20012G17KT 02/M11 A3004 RMK A01 T00171109  RH  039%=      5-min Rain = 0
KQU1 130940Z 20012G17KT 02/M11 A3004 RMK A01 T00171109  RH  039%=      5-min Rain = 0
KQU1 130941Z 20014G19KT 02/M11 A3004 RMK A01 T00181108  RH  039%=      5-min Rain = 0
KQU1 130942Z 21013KT 02/M11 A3004 RMK A01 T00191108  RH  039%=      5-min Rain = 0
KQU1 130943Z 20012KT 02/M11 A3004 RMK A01 T00181108  RH  039%=      5-min Rain = 0
KQU1 130944Z 20013KT 02/M11 A3004 RMK A01 T00181107  RH  039%=      5-min Rain = 0
KQU1 130945Z 20013KT 02/M11 A3004 RMK A01 T00191107  RH  039%=      5-min Rain = 0
KQU1 130946Z 20012KT 02/M11 A3004 RMK A01 T00201107  RH  039%=      5-min Rain = 0
KQU1 130947Z 19013KT 02/M11 A3004 RMK A01 T00201107  RH  039%=      5-min Rain = 0
KQU1 130948Z 19013KT 02/M11 A3004 RMK A01 T00191106  RH  039%=      5-min Rain = 0
KQU1 130949Z 19014KT 02/M11 A3004 RMK A01 T00201106  RH  039%=      5-min Rain = 0
KQU1 130950Z 19014KT 02/M11 A3004 RMK A01 T00201106  RH  039%=      5-min Rain = 0
KQU1 130951Z 19012KT 02/M11 A3004 RMK A01 T00201106  RH  039%=      5-min Rain = 0
KQU1 130952Z 19011KT 02/M11 A3004 RMK A01 T00191106  RH  039%=      5-min Rain = 0
KQU1 130953Z 19012KT 02/M11 A3004 RMK A01 T00191105  RH  039%=      5-min Rain = 0
KQU1 130954Z 19013KT 02/M11 A3004 RMK A01 T00181105  RH  040%=      5-min Rain = 0
KQU1 130955Z 19013KT 02/M10 A3004 RMK A01 T00181104  RH  040%=      5-min Rain = 0
KQU1 130956Z 18013KT 02/M10 A3004 RMK A01 T00181104  RH  040%=      5-min Rain = 0
KQU1 130957Z 19014KT 02/M10 A3004 RMK A01 T00191103  RH  040%=      5-min Rain = 0
KQU1 130958Z 18011KT 02/M10 A3004 RMK A01 T00191103  RH  040%=      5-min Rain = 0
KQU1 130959Z 18011KT 02/M10 A3004 RMK A01 T00181104  RH  040%=      5-min Rain = 0
KQU1 131000Z 18010KT 02/M10 A3004 RMK A01 T00181103  RH  040%=      5-min Rain = 0
KQU1 131001Z 19011KT 02/M10 A3004 RMK A01 T00171103  RH  041%=      5-min Rain = 0
KQU1 131002Z 19010G17KT 02/M10 A3003 RMK A01 T00171103  RH  041%=      5-min Rain = 0
KQU1 131003Z 19011G16KT 02/M10 A3003 RMK A01 T00171102  RH  041%=      5-min Rain = 0
KQU1 131004Z 18011KT 02/M10 A3003 RMK A01 T00171102  RH  041%=      5-min Rain = 0
KQU1 131005Z 18010KT 02/M10 A3003 RMK A01 T00161102  RH  041%=      5-min Rain = 0
KQU1 131006Z 18011KT 02/M10 A3003 RMK A01 T00151101  RH  042%=      5-min Rain = 0
KQU1 131007Z 18009KT 02/M10 A3003 RMK A01 T00151101  RH  042%=      5-min Rain = 0
KQU1 131008Z 19011KT 02/M10 A3003 RMK A01 T00151101  RH  042%=      5-min Rain = 0
KQU1 131009Z 19011KT 02/M10 A3003 RMK A01 T00151100  RH  042%=      5-min Rain = 0
KQU1 131010Z 18009KT 02/M10 A3003 RMK A01 T00151100  RH  042%=      5-min Rain = 0
KQU1 131011Z 20010KT 02/M10 A3003 RMK A01 T00151099  RH  042%=      5-min Rain = 0
KQU1 131012Z 19010KT 02/M10 A3003 RMK A01 T00151099  RH  042%=      5-min Rain = 0
KQU1 131013Z 19009KT 02/M10 A3003 RMK A01 T00151099  RH  042%=      5-min Rain = 0
KQU1 131014Z 18009KT 01/M10 A3003 RMK A01 T00141099  RH  043%=      5-min Rain = 0
KQU1 131015Z 19009KT 01/M10 A3003 RMK A01 T00141098  RH  043%=      5-min Rain = 0
KQU1 131016Z 19010KT 01/M10 A3003 RMK A01 T00131098  RH  043%=      5-min Rain = 0
KQU1 131017Z 19011KT 01/M10 A3003 RMK A01 T00141097  RH  044%=      5-min Rain = 0
KQU1 131018Z 19009KT 01/M10 A3003 RMK A01 T00141097  RH  044%=      5-min Rain = 0
KQU1 131019Z 19009KT 01/M10 A3003 RMK A01 T00141097  RH  044%=      5-min Rain = 0
KQU1 131020Z 18009KT 01/M10 A3003 RMK A01 T00131097  RH  043%=      5-min Rain = 0
KQU1 131021Z 18009KT 01/M10 A3003 RMK A01 T00131098  RH  044%=      5-min Rain = 0
KQU1 131022Z 18010KT 01/M10 A3003 RMK A01 T00131098  RH  044%=      5-min Rain = 0
KQU1 131023Z 17009KT 01/M10 A3003 RMK A01 T00121098  RH  044%=      5-min Rain = 0
KQU1 131024Z 18010KT 01/M10 A3003 RMK A01 T00121098  RH  044%=      5-min Rain = 0
KQU1 131025Z 18009KT 01/M10 A3003 RMK A01 T00111097  RH  044%=      5-min Rain = 0
KQU1 131026Z 18009KT 01/M10 A3003 RMK A01 T00111097  RH  044%=      5-min Rain = 0
KQU1 131027Z 18011KT 01/M10 A3003 RMK A01 T00101097  RH  045%=      5-min Rain = 0
KQU1 131028Z 18010KT 01/M10 A3003 RMK A01 T00091097  RH  045%=      5-min Rain = 0
KQU1 131029Z 17011KT 01/M10 A3003 RMK A01 T00091097  RH  045%=      5-min Rain = 0
KQU1 131030Z 17012KT 01/M10 A3003 RMK A01 T00091096  RH  045%=      5-min Rain = 0
KQU1 131031Z 18013KT 01/M10 A3003 RMK A01 T00091096  RH  045%=      5-min Rain = 0
KQU1 131032Z 17013KT 01/M10 A3003 RMK A01 T00091096  RH  045%=      5-min Rain = 0
KQU1 131033Z 17011KT 01/M10 A3003 RMK A01 T00091096  RH  045%=      5-min Rain = 0
KQU1 131034Z 18011KT 01/M10 A3003 RMK A01 T00091096  RH  046%=      5-min Rain = 0
KQU1 131035Z 18011KT 01/M10 A3003 RMK A01 T00091095  RH  046%=      5-min Rain = 0
KQU1 131036Z 18011KT 01/M10 A3003 RMK A01 T00091095  RH  046%=      5-min Rain = 0
KQU1 131037Z 18011KT 01/M10 A3003 RMK A01 T00091095  RH  046%=      5-min Rain = 0
KQU1 131038Z 18011KT 01/M10 A3003 RMK A01 T00091095  RH  046%=      5-min Rain = 0
KQU1 131039Z 18012KT 01/M10 A3003 RMK A01 T00091095  RH  046%=      5-min Rain = 0
KQU1 131040Z 18013KT 01/M10 A3003 RMK A01 T00091095  RH  046%=      5-min Rain = 0
KQU1 131041Z 18011KT 01/M10 A3003 RMK A01 T00101095  RH  045%=      5-min Rain = 0
KQU1 131042Z 18012KT 01/M10 A3003 RMK A01 T00101095  RH  046%=      5-min Rain = 0
KQU1 131043Z 18011KT 01/M10 A3003 RMK A01 T00101095  RH  046%=      5-min Rain = 0
KQU1 131044Z 18010KT 01/M10 A3003 RMK A01 T00091095  RH  046%=      5-min Rain = 0
KQU1 131045Z 19009KT 01/M10 A3003 RMK A01 T00091095  RH  046%=      5-min Rain = 0
KQU1 131046Z 18010KT 01/M09 A3002 RMK A01 T00091094  RH  046%=      5-min Rain = 0
KQU1 131047Z 18009KT 01/M09 A3002 RMK A01 T00091094  RH  046%=      5-min Rain = 0
KQU1 131048Z 18011KT 01/M09 A3002 RMK A01 T00091094  RH  046%=      5-min Rain = 0
KQU1 131049Z 18011KT 01/M09 A3003 RMK A01 T00091094  RH  046%=      5-min Rain = 0
KQU1 131050Z 17011KT 01/M09 A3003 RMK A01 T00081094  RH  046%=      5-min Rain = 0
KQU1 131051Z 17012KT 01/M09 A3003 RMK A01 T00081094  RH  046%=      5-min Rain = 0
KQU1 131052Z 17012KT 01/M09 A3002 RMK A01 T00071094  RH  047%=      5-min Rain = 0
KQU1 131053Z 18011KT 01/M09 A3002 RMK A01 T00071093  RH  047%=      5-min Rain = 0
KQU1 131054Z 19011KT 01/M09 A3002 RMK A01 T00071092  RH  047%=      5-min Rain = 0
KQU1 131055Z 19012KT 01/M09 A3002 RMK A01 T00071092  RH  047%=      5-min Rain = 0
KQU1 131056Z 19014KT 01/M09 A3002 RMK A01 T00081092  RH  047%=      5-min Rain = 0
KQU1 131057Z 19015KT 01/M09 A3002 RMK A01 T00081091  RH  047%=      5-min Rain = 0
KQU1 131058Z 19015KT 01/M09 A3002 RMK A01 T00091091  RH  047%=      5-min Rain = 0
KQU1 131059Z 19014KT 01/M09 A3002 RMK A01 T00091091  RH  047%=      5-min Rain = 0
KQU1 131100Z 19017KT 01/M09 A3002 RMK A01 T00091091  RH  047%=      5-min Rain = 0
KQU1 131101Z 19016KT 01/M09 A3002 RMK A01 T00101091  RH  047%=      5-min Rain = 0
KQU1 131102Z 18016KT 01/M09 A3002 RMK A01 T00101091  RH  047%=      5-min Rain = 0
KQU1 131103Z 19014KT 01/M09 A3002 RMK A01 T00101091  RH  047%=      5-min Rain = 0
KQU1 131104Z 19015KT 01/M09 A3002 RMK A01 T00101091  RH  047%=      5-min Rain = 0
KQU1 131105Z 18016KT 01/M09 A3002 RMK A01 T00101091  RH  047%=      5-min Rain = 0
KQU1 131106Z 19015KT 01/M09 A3002 RMK A01 T00091091  RH  047%=      5-min Rain = 0
KQU1 131107Z 18015KT 01/M09 A3002 RMK A01 T00091090  RH  047%=      5-min Rain = 0
KQU1 131108Z 18017KT 01/M09 A3002 RMK A01 T00091090  RH  048%=      5-min Rain = 0
KQU1 131109Z 19017KT 01/M09 A3001 RMK A01 T00101089  RH  048%=      5-min Rain = 0
KQU1 131110Z 19016KT 01/M09 A3001 RMK A01 T00101089  RH  048%=      5-min Rain = 0
KQU1 131111Z 18014KT 01/M09 A3001 RMK A01 T00101088  RH  048%=      5-min Rain = 0
KQU1 131112Z 18014KT 01/M09 A3001 RMK A01 T00101089  RH  048%=      5-min Rain = 0
KQU1 131113Z 17013KT 01/M09 A3001 RMK A01 T00091089  RH  048%=      5-min Rain = 0
KQU1 131114Z 18014KT 01/M09 A3001 RMK A01 T00081088  RH  049%=      5-min Rain = 0
KQU1 131115Z 17013KT 01/M09 A3001 RMK A01 T00081088  RH  049%=      5-min Rain = 0
KQU1 131116Z 17012KT 01/M09 A3001 RMK A01 T00071089  RH  049%=      5-min Rain = 0
KQU1 131117Z 17013KT 01/M09 A3001 RMK A01 T00071089  RH  049%=      5-min Rain = 0
KQU1 131118Z 18012KT 01/M09 A3001 RMK A01 T00061088  RH  049%=      5-min Rain = 0
KQU1 131119Z 18013KT 01/M09 A3001 RMK A01 T00061087  RH  050%=      5-min Rain = 0
KQU1 131120Z 18013KT 01/M09 A3001 RMK A01 T00061087  RH  050%=      5-min Rain = 0
KQU1 131121Z 18016KT 01/M09 A3001 RMK A01 T00071086  RH  050%=      5-min Rain = 0
KQU1 131122Z 19017KT 01/M09 A30 RMK A01 T00081085  RH  050%=      5-min Rain = 0
KQU1 131123Z 18014KT 01/M09 A30 RMK A01 T00081085  RH  050%=      5-min Rain = 0
KQU1 131124Z 19016KT 01/M09 A3001 RMK A01 T00081085  RH  050%=      5-min Rain = 0
KQU1 131125Z 19016KT 01/M08 A3001 RMK A01 T00091084  RH  050%=      5-min Rain = 0
KQU1 131126Z 19015KT 01/M08 A3001 RMK A01 T00091084  RH  050%=      5-min Rain = 0
KQU1 131127Z 18015KT 01/M08 A3001 RMK A01 T00091084  RH  050%=      5-min Rain = 0
KQU1 131128Z 19016KT 01/M08 A3001 RMK A01 T00091084  RH  050%=      5-min Rain = 0
KQU1 131129Z 19014KT 01/M08 A3001 RMK A01 T00101084  RH  050%=      5-min Rain = 0
KQU1 131130Z 19015KT 01/M08 A3001 RMK A01 T00101083  RH  050%=      5-min Rain = 0
KQU1 131131Z 19018G25KT 01/M08 A30 RMK A01 T00101083  RH  050%=      5-min Rain = 0
KQU1 131132Z 19018G23KT 01/M08 A3001 RMK A01 T00101083  RH  050%=      5-min Rain = 0
KQU1 131133Z 20017KT 01/M08 A30 RMK A01 T00101083  RH  050%=      5-min Rain = 0
KQU1 131134Z 20017G22KT 01/M08 A30 RMK A01 T00101083  RH  050%=      5-min Rain = 0
KQU1 131135Z 19018KT 01/M08 A30 RMK A01 T00111082  RH  050%=      5-min Rain = 0
KQU1 131136Z 19018KT 01/M08 A30 RMK A01 T00111082  RH  050%=      5-min Rain = 0
KQU1 131137Z 20018G26KT 01/M08 A30 RMK A01 T00111082  RH  050%=      5-min Rain = 0
KQU1 131138Z 19018KT 01/M08 A30 RMK A01 T00111082  RH  050%=      5-min Rain = 0
KQU1 131139Z 20018KT 01/M08 A30 RMK A01 T00111082  RH  050%=      5-min Rain = 0
KQU1 131140Z 20017KT 01/M08 A30 RMK A01 T00111082  RH  050%=      5-min Rain = 0
KQU1 131141Z 20019KT 01/M08 A30 RMK A01 T00111081  RH  050%=      5-min Rain = 0
KQU1 131142Z 20018KT 01/M08 A30 RMK A01 T00121081  RH  050%=      5-min Rain = 0
KQU1 131143Z 19015KT 01/M08 A30 RMK A01 T00121081  RH  050%=      5-min Rain = 0
KQU1 131144Z 20018KT 01/M08 A30 RMK A01 T00111081  RH  050%=      5-min Rain = 0
KQU1 131145Z 20017KT 01/M08 A30 RMK A01 T00121081  RH  050%=      5-min Rain = 0
KQU1 131146Z 20020KT 01/M08 A30 RMK A01 T00121081  RH  050%=      5-min Rain = 0
KQU1 131147Z 20019G24KT 01/M08 A30 RMK A01 T00121081  RH  050%=      5-min Rain = 0
KQU1 131148Z 19021KT 01/M08 A30 RMK A01 T00121080  RH  050%=      5-min Rain = 0
KQU1 131149Z 19021G26KT 01/M08 A2999 RMK A01 T00121080  RH  050%=      5-min Rain = 0
KQU1 131150Z 19021KT 01/M08 A2999 RMK A01 T00131080  RH  050%=      5-min Rain = 0
KQU1 131151Z 19019G25KT 01/M08 A2999 RMK A01 T00131080  RH  050%=      5-min Rain = 0
KQU1 131152Z 19020KT 01/M08 A2999 RMK A01 T00131080  RH  050%=      5-min Rain = 0
KQU1 131153Z 19021KT 01/M08 A2999 RMK A01 T00131080  RH  050%=      5-min Rain = 0
KQU1 131154Z 19021KT 01/M08 A2999 RMK A01 T00131079  RH  050%=      5-min Rain = 0
KQU1 131155Z 19020G25KT 01/M08 A2999 RMK A01 T00131079  RH  050%=      5-min Rain = 0
KQU1 131156Z 19022KT 01/M08 A2999 RMK A01 T00131079  RH  050%=      5-min Rain = 0
KQU1 131157Z 19020KT 01/M08 A2999 RMK A01 T00131078  RH  050%=      5-min Rain = 0
KQU1 131158Z 19021KT 01/M08 A2999 RMK A01 T00131079  RH  050%=      5-min Rain = 0
KQU1 131159Z 19018G23KT 01/M08 A2999 RMK A01 T00131079  RH  050%=      5-min Rain = 0
KQU1 131200Z 19020KT 01/M08 A2999 RMK A01 T00131078  RH  051%=      5-min Rain = 0
KQU1 131201Z 20020KT 01/M08 A2999 RMK A01 T00131078  RH  051%=      5-min Rain = 0
KQU1 131202Z 20018G23KT 01/M08 A2999 RMK A01 T00131078  RH  051%=      5-min Rain = 0
KQU1 131203Z 20018KT 01/M08 A2999 RMK A01 T00121078  RH  051%=      5-min Rain = 0
KQU1 131204Z 20019KT 01/M08 A2999 RMK A01 T00121077  RH  051%=      5-min Rain = 0
KQU1 131205Z 20019KT 01/M08 A2999 RMK A01 T00121077  RH  051%=      5-min Rain = 0
KQU1 131206Z 20020KT 01/M08 A2999 RMK A01 T00131077  RH  051%=      5-min Rain = 0
KQU1 131207Z 20019KT 01/M08 A2999 RMK A01 T00131076  RH  051%=      5-min Rain = 0
KQU1 131208Z 20019KT 01/M08 A2999 RMK A01 T00131076  RH  051%=      5-min Rain = 0
KQU1 131209Z 20019KT 01/M08 A2999 RMK A01 T00131076  RH  052%=      5-min Rain = 0
KQU1 131210Z 20016KT 01/M08 A2999 RMK A01 T00131076  RH  052%=      5-min Rain = 0
KQU1 131211Z 20019KT 01/M08 A2999 RMK A01 T00131075  RH  052%=      5-min Rain = 0
KQU1 131212Z 20018G23KT 01/M07 A2999 RMK A01 T00141074  RH  052%=      5-min Rain = 0
KQU1 131213Z 20019KT 01/M07 A2999 RMK A01 T00141074  RH  052%=      5-min Rain = 0
KQU1 131214Z 20018KT 01/M07 A2999 RMK A01 T00141074  RH  052%=      5-min Rain = 0
KQU1 131215Z 20016KT 01/M07 A2999 RMK A01 T00141074  RH  052%=      5-min Rain = 0
KQU1 131216Z 20017KT 01/M07 A2999 RMK A01 T00141074  RH  052%=      5-min Rain = 0
KQU1 131217Z 20018KT 01/M07 A2999 RMK A01 T00141073  RH  052%=      5-min Rain = 0
KQU1 131218Z 20019KT 01/M07 A2999 RMK A01 T00141072  RH  053%=      5-min Rain = 0
KQU1 131219Z 20019G28KT 01/M07 A2999 RMK A01 T00141072  RH  053%=      5-min Rain = 0
KQU1 131220Z 20019G24KT 02/M07 A2999 RMK A01 T00151071  RH  053%=      5-min Rain = 0
KQU1 131221Z 21018KT 02/M07 A2999 RMK A01 T00161071  RH  052%=      5-min Rain = 0
KQU1 131222Z 19016KT 02/M07 A2999 RMK A01 T00161071  RH  052%=      5-min Rain = 0
KQU1 131223Z 20020G26KT 02/M07 A2999 RMK A01 T00161071  RH  053%=      5-min Rain = 0
KQU1 131224Z 20017KT 02/M07 A2999 RMK A01 T00161071  RH  052%=      5-min Rain = 0
KQU1 131225Z 20018KT 02/M07 A2999 RMK A01 T00161071  RH  053%=      5-min Rain = 0
KQU1 131226Z 20020KT 02/M07 A2999 RMK A01 T00161070  RH  053%=      5-min Rain = 0
KQU1 131227Z 20016KT 02/M07 A2998 RMK A01 T00161070  RH  053%=      5-min Rain = 0
KQU1 131228Z 20016G22KT 02/M07 A2998 RMK A01 T00161070  RH  053%=      5-min Rain = 0
KQU1 131229Z 20019KT 02/M07 A2998 RMK A01 T00161069  RH  053%=      5-min Rain = 0
KQU1 131230Z 20017KT 02/M07 A2998 RMK A01 T00161069  RH  053%=      5-min Rain = 0
KQU1 131231Z 20021KT 02/M07 A2998 RMK A01 T00161068  RH  053%=      5-min Rain = 0
KQU1 131232Z 20017KT 02/M07 A2998 RMK A01 T00171068  RH  053%=      5-min Rain = 0
KQU1 131233Z 20015KT 02/M07 A2998 RMK A01 T00171069  RH  053%=      5-min Rain = 0
KQU1 131234Z 20017KT 02/M07 A2998 RMK A01 T00171068  RH  053%=      5-min Rain = 0
KQU1 131235Z 21018G23KT 02/M07 A2998 RMK A01 T00171068  RH  053%=      5-min Rain = 0
KQU1 131236Z 20018KT 02/M07 A2998 RMK A01 T00171068  RH  053%=      5-min Rain = 0
KQU1 131237Z 21016G21KT 02/M07 A2998 RMK A01 T00171068  RH  053%=      5-min Rain = 0
KQU1 131238Z 20016KT 02/M07 A2998 RMK A01 T00171068  RH  053%=      5-min Rain = 0
KQU1 131239Z 21019G25KT 02/M07 A2998 RMK A01 T00171067  RH  054%=      5-min Rain = 0
KQU1 131240Z 20017G24KT 02/M07 A2998 RMK A01 T00181067  RH  053%=      5-min Rain = 0
KQU1 131241Z 20019KT 02/M07 A2998 RMK A01 T00181067  RH  053%=      5-min Rain = 0
KQU1 131242Z 20017KT 02/M07 A2999 RMK A01 T00171067  RH  054%=      5-min Rain = 0
KQU1 131243Z 21017KT 02/M07 A2999 RMK A01 T00171067  RH  054%=      5-min Rain = 0
KQU1 131244Z 21019KT 02/M07 A2999 RMK A01 T00171066  RH  054%=      5-min Rain = 0
KQU1 131245Z 21018KT 02/M07 A2999 RMK A01 T00181066  RH  054%=      5-min Rain = 0
KQU1 131246Z 20016KT 02/M07 A2999 RMK A01 T00171067  RH  054%=      5-min Rain = 0
KQU1 131247Z 21017G22KT 02/M07 A2999 RMK A01 T00171066  RH  054%=      5-min Rain = 0
KQU1 131248Z 21018KT 02/M07 A2999 RMK A01 T00171066  RH  054%=      5-min Rain = 0
KQU1 131249Z 21018G24KT 02/M07 A2999 RMK A01 T00171066  RH  054%=      5-min Rain = 0
KQU1 131250Z 21016KT 02/M07 A2999 RMK A01 T00171066  RH  054%=      5-min Rain = 0
KQU1 131251Z 21016G24KT 02/M07 A2999 RMK A01 T00171066  RH  054%=      5-min Rain = 0
KQU1 131252Z 21020KT 02/M07 A2999 RMK A01 T00181065  RH  054%=      5-min Rain = 0
KQU1 131253Z 21020G26KT 02/M07 A2999 RMK A01 T00181065  RH  054%=      5-min Rain = 0
KQU1 131254Z 21020KT 02/M07 A2999 RMK A01 T00181065  RH  054%=      5-min Rain = 0
KQU1 131255Z 22021KT 02/M07 A2999 RMK A01 T00191065  RH  054%=      5-min Rain = 0
KQU1 131256Z 21016KT 02/M07 A2999 RMK A01 T00191066  RH  054%=      5-min Rain = 0
KQU1 131257Z 21017KT 02/M07 A2999 RMK A01 T00181066  RH  054%=      5-min Rain = 0
KQU1 131258Z 21017KT 02/M07 A2999 RMK A01 T00181066  RH  054%=      5-min Rain = 0
KQU1 131259Z 21017G23KT 02/M07 A2999 RMK A01 T00181065  RH  054%=      5-min Rain = 0
KQU1 131300Z 21020KT 02/M07 A2999 RMK A01 T00181065  RH  054%=      5-min Rain = 0
KQU1 131301Z 21018G23KT 02/M07 A2999 RMK A01 T00181066  RH  054%=      5-min Rain = 0
KQU1 131302Z 21022KT 02/M07 A2999 RMK A01 T00191065  RH  054%=      5-min Rain = 0
KQU1 131303Z 21019G24KT 02/M07 A2999 RMK A01 T00191065  RH  054%=      5-min Rain = 0
KQU1 131304Z 21016G21KT 02/M07 A2999 RMK A01 T00191066  RH  054%=      5-min Rain = 0
KQU1 131305Z 21019KT 02/M07 A2999 RMK A01 T00181066  RH  054%=      5-min Rain = 0
KQU1 131306Z 21017KT 02/M07 A2999 RMK A01 T00181066  RH  054%=      5-min Rain = 0
KQU1 131307Z 21019KT 02/M07 A2999 RMK A01 T00181065  RH  054%=      5-min Rain = 0
KQU1 131308Z 21019KT 02/M07 A2999 RMK A01 T00181065  RH  054%=      5-min Rain = 0
KQU1 131309Z 21017KT 02/M07 A2999 RMK A01 T00181066  RH  054%=      5-min Rain = 0
KQU1 131310Z 20019KT 02/M07 A2998 RMK A01 T00171066  RH  054%=      5-min Rain = 0
KQU1 131311Z 22022G28KT 02/M07 A2998 RMK A01 T00171066  RH  054%=      5-min Rain = 0
KQU1 131312Z 20017KT 02/M07 A2998 RMK A01 T00171066  RH  054%=      5-min Rain = 0
KQU1 131313Z 21021G26KT 02/M07 A2998 RMK A01 T00171066  RH  054%=      5-min Rain = 0
KQU1 131314Z 21021KT 02/M07 A2998 RMK A01 T00171066  RH  054%=      5-min Rain = 0
KQU1 131315Z 21019G24KT 02/M07 A2998 RMK A01 T00171066  RH  054%=      5-min Rain = 0
KQU1 131316Z 21019G24KT 02/M07 A2998 RMK A01 T00161066  RH  054%=      5-min Rain = 0
KQU1 131317Z 21021KT 02/M07 A2998 RMK A01 T00161066  RH  054%=      5-min Rain = 0
KQU1 131318Z 21022KT 02/M07 A2998 RMK A01 T00161066  RH  054%=      5-min Rain = 0
KQU1 131319Z 21019G24KT 02/M07 A2998 RMK A01 T00161067  RH  054%=      5-min Rain = 0
KQU1 131320Z 21021G27KT 02/M07 A2998 RMK A01 T00161067  RH  054%=      5-min Rain = 0
KQU1 131321Z 21023KT 02/M07 A2998 RMK A01 T00161066  RH  054%=      5-min Rain = 0
KQU1 131322Z 21018KT 02/M07 A2998 RMK A01 T00161067  RH  054%=      5-min Rain = 0
KQU1 131323Z 21020KT 02/M07 A2998 RMK A01 T00161067  RH  054%=      5-min Rain = 0
KQU1 131324Z 21022KT 02/M07 A2998 RMK A01 T00161067  RH  054%=      5-min Rain = 0
KQU1 131325Z 21018KT 02/M07 A2998 RMK A01 T00161067  RH  054%=      5-min Rain = 0
KQU1 131326Z 21018KT 02/M07 A2998 RMK A01 T00151067  RH  054%=      5-min Rain = 0
KQU1 131327Z 21018G24KT 02/M07 A2998 RMK A01 T00151067  RH  054%=      5-min Rain = 0
KQU1 131328Z 22023KT 02/M07 A2998 RMK A01 T00161066  RH  054%=      5-min Rain = 0
KQU1 131329Z 21019KT 02/M07 A2998 RMK A01 T00161066  RH  054%=      5-min Rain = 0
KQU1 131330Z 21021KT 02/M07 A2998 RMK A01 T00161066  RH  054%=      5-min Rain = 0
KQU1 131331Z 21021G26KT 02/M07 A2998 RMK A01 T00161067  RH  054%=      5-min Rain = 0
KQU1 131332Z 21020G26KT 02/M07 A2998 RMK A01 T00161067  RH  054%=      5-min Rain = 0
KQU1 131333Z 21020KT 02/M07 A2998 RMK A01 T00161066  RH  054%=      5-min Rain = 0
KQU1 131334Z 21016KT 02/M07 A2998 RMK A01 T00161066  RH  054%=      5-min Rain = 0
KQU1 131335Z 21021KT 02/M07 A2998 RMK A01 T00161066  RH  054%=      5-min Rain = 0
KQU1 131336Z 22022KT 02/M07 A2998 RMK A01 T00171066  RH  054%=      5-min Rain = 0
KQU1 131337Z 21020KT 02/M07 A2997 RMK A01 T00171066  RH  054%=      5-min Rain = 0
KQU1 131338Z 21019KT 02/M07 A2997 RMK A01 T00171066  RH  054%=      5-min Rain = 0
KQU1 131339Z 21021KT 02/M07 A2997 RMK A01 T00171066  RH  054%=      5-min Rain = 0
KQU1 131340Z 21016KT 02/M07 A2998 RMK A01 T00171066  RH  054%=      5-min Rain = 0
KQU1 131341Z 22017KT 02/M07 A2998 RMK A01 T00171066  RH  054%=      5-min Rain = 0
KQU1 131342Z 21019KT 02/M07 A2997 RMK A01 T00171066  RH  054%=      5-min Rain = 0
KQU1 131343Z 22016KT 02/M07 A2998 RMK A01 T00171066  RH  054%=      5-min Rain = 0
KQU1 131344Z 22019KT 02/M07 A2997 RMK A01 T00171066  RH  054%=      5-min Rain = 0
KQU1 131345Z 21020G26KT 02/M07 A2997 RMK A01 T00181066  RH  054%=      5-min Rain = 0
KQU1 131346Z 21020G26KT 02/M07 A2997 RMK A01 T00181066  RH  054%=      5-min Rain = 0
KQU1 131347Z 21019G24KT 02/M07 A2997 RMK A01 T00181066  RH  053%=      5-min Rain = 0
KQU1 131348Z 22017KT 02/M07 A2997 RMK A01 T00181067  RH  053%=      5-min Rain = 0
KQU1 131349Z 22019G25KT 02/M07 A2997 RMK A01 T00181066  RH  054%=      5-min Rain = 0
KQU1 131350Z 22021KT 02/M07 A2998 RMK A01 T00181066  RH  054%=      5-min Rain = 0
KQU1 131351Z 21017KT 02/M07 A2998 RMK A01 T00181067  RH  053%=      5-min Rain = 0
KQU1 131352Z 21017KT 02/M07 A2998 RMK A01 T00181066  RH  053%=      5-min Rain = 0
KQU1 131353Z 21016KT 02/M07 A2998 RMK A01 T00191066  RH  053%=      5-min Rain = 0
KQU1 131354Z 22017KT 02/M07 A2998 RMK A01 T00191066  RH  053%=      5-min Rain = 0
KQU1 131355Z 22019KT 02/M07 A2998 RMK A01 T00201066  RH  053%=      5-min Rain = 0
KQU1 131356Z 21016KT 02/M07 A2998 RMK A01 T00201066  RH  053%=      5-min Rain = 0
KQU1 131357Z 22018G23KT 02/M07 A2998 RMK A01 T00201066  RH  053%=      5-min Rain = 0
KQU1 131358Z 22018KT 02/M07 A2998 RMK A01 T00211066  RH  053%=      5-min Rain = 0
KQU1 131359Z 22017KT 02/M07 A2998 RMK A01 T00211066  RH  052%=      5-min Rain = 0
KQU1 131400Z 21018KT 02/M07 A2998 RMK A01 T00221066  RH  052%=      5-min Rain = 0
KQU1 131401Z 21017KT 02/M07 A2998 RMK A01 T00221066  RH  052%=      5-min Rain = 0
KQU1 131402Z 22015KT 02/M07 A2998 RMK A01 T00221066  RH  052%=      5-min Rain = 0
KQU1 131403Z 21017KT 02/M07 A2998 RMK A01 T00221066  RH  052%=      5-min Rain = 0
KQU1 131404Z 22017G22KT 02/M07 A2998 RMK A01 T00231066  RH  052%=      5-min Rain = 0
KQU1 131405Z 22016KT 02/M07 A2998 RMK A01 T00231066  RH  052%=      5-min Rain = 0
KQU1 131406Z 22015KT 02/M07 A2998 RMK A01 T00241065  RH  052%=      5-min Rain = 0
KQU1 131407Z 21016G21KT 02/M07 A2998 RMK A01 T00241065  RH  052%=      5-min Rain = 0
KQU1 131408Z 22020KT 03/M07 A2999 RMK A01 T00251065  RH  051%=      5-min Rain = 0
KQU1 131409Z 22017KT 03/M07 A2999 RMK A01 T00251065  RH  051%=      5-min Rain = 0
KQU1 131410Z 21018KT 03/M07 A2999 RMK A01 T00261065  RH  051%=      5-min Rain = 0
KQU1 131411Z 21014KT 03/M07 A2999 RMK A01 T00261065  RH  051%=      5-min Rain = 0
KQU1 131412Z 21017G23KT 03/M07 A2999 RMK A01 T00271065  RH  051%=      5-min Rain = 0
KQU1 131413Z 21018G23KT 03/M07 A2999 RMK A01 T00271065  RH  051%=      5-min Rain = 0
KQU1 131414Z 21017KT 03/M07 A2999 RMK A01 T00271065  RH  050%=      5-min Rain = 0
KQU1 131415Z 21017G22KT 03/M07 A2999 RMK A01 T00281065  RH  050%=      5-min Rain = 0
KQU1 131416Z 22018KT 03/M07 A2999 RMK A01 T00291065  RH  050%=      5-min Rain = 0
KQU1 131417Z 21015KT 03/M07 A2999 RMK A01 T00291065  RH  050%=      5-min Rain = 0
KQU1 131418Z 21018KT 03/M07 A2998 RMK A01 T00301065  RH  050%=      5-min Rain = 0
KQU1 131419Z 21020KT 03/M07 A2998 RMK A01 T00301066  RH  050%=      5-min Rain = 0
KQU1 131420Z 21020KT 03/M07 A2998 RMK A01 T00301066  RH  049%=      5-min Rain = 0
KQU1 131421Z 21018KT 03/M07 A2998 RMK A01 T00301066  RH  049%=      5-min Rain = 0
KQU1 131422Z 21017G23KT 03/M07 A2998 RMK A01 T00301065  RH  049%=      5-min Rain = 0
KQU1 131423Z 22018KT 03/M06 A2998 RMK A01 T00321064  RH  049%=      5-min Rain = 0
KQU1 131424Z 21016KT 03/M07 A2998 RMK A01 T00331065  RH  049%=      5-min Rain = 0
KQU1 131425Z 21015G21KT 03/M06 A2998 RMK A01 T00331064  RH  049%=      5-min Rain = 0
KQU1 131426Z 21017KT 03/M06 A2998 RMK A01 T00341064  RH  049%=      5-min Rain = 0
KQU1 131427Z 22019G24KT 03/M06 A2998 RMK A01 T00341064  RH  049%=      5-min Rain = 0
KQU1 131428Z 21017G23KT 04/M06 A2998 RMK A01 T00351064  RH  048%=      5-min Rain = 0
KQU1 131429Z 21020KT 04/M06 A2998 RMK A01 T00351064  RH  048%=      5-min Rain = 0
KQU1 131430Z 21018KT 04/M07 A2998 RMK A01 T00351065  RH  048%=      5-min Rain = 0
KQU1 131431Z 21016G21KT 04/M06 A2998 RMK A01 T00361064  RH  048%=      5-min Rain = 0
KQU1 131432Z 21018KT 04/M06 A2998 RMK A01 T00361064  RH  048%=      5-min Rain = 0
KQU1 131433Z 22018KT 04/M06 A2997 RMK A01 T00371063  RH  048%=      5-min Rain = 0
KQU1 131434Z 21016KT 04/M06 A2997 RMK A01 T00371063  RH  048%=      5-min Rain = 0
KQU1 131435Z 21017G23KT 04/M06 A2997 RMK A01 T00381063  RH  048%=      5-min Rain = 0
KQU1 131436Z 21016KT 04/M06 A2997 RMK A01 T00391063  RH  048%=      5-min Rain = 0
KQU1 131437Z 21014G20KT 04/M06 A2997 RMK A01 T00391063  RH  047%=      5-min Rain = 0
KQU1 131438Z 21015G22KT 04/M06 A2997 RMK A01 T00401063  RH  047%=      5-min Rain = 0
KQU1 131439Z 21018G23KT 04/M06 A2998 RMK A01 T00411062  RH  047%=      5-min Rain = 0
KQU1 131440Z 21016KT 04/M06 A2998 RMK A01 T00411062  RH  047%=      5-min Rain = 0
KQU1 131441Z 21016G22KT 04/M06 A2998 RMK A01 T00431062  RH  047%=      5-min Rain = 0
KQU1 131442Z 21016KT 04/M06 A2998 RMK A01 T00431062  RH  046%=      5-min Rain = 0
KQU1 131443Z 21016KT 04/M06 A2998 RMK A01 T00441062  RH  046%=      5-min Rain = 0
KQU1 131444Z 21017KT 04/M06 A2998 RMK A01 T00441062  RH  046%=      5-min Rain = 0
KQU1 131445Z 21017G22KT 04/M06 A2998 RMK A01 T00441062  RH  046%=      5-min Rain = 0
KQU1 131446Z 20015KT 04/M06 A2998 RMK A01 T00441062  RH  046%=      5-min Rain = 0
KQU1 131447Z 21017G23KT 05/M06 A2998 RMK A01 T00451061  RH  046%=      5-min Rain = 0
KQU1 131448Z 21020KT 05/M06 A2998 RMK A01 T00451062  RH  046%=      5-min Rain = 0
KQU1 131449Z 22019KT 05/M06 A2998 RMK A01 T00451063  RH  046%=      5-min Rain = 0
KQU1 131450Z 21018KT 04/M06 A2997 RMK A01 T00441062  RH  046%=      5-min Rain = 0
KQU1 131451Z 21019KT 05/M06 A2998 RMK A01 T00451062  RH  046%=      5-min Rain = 0
KQU1 131452Z 22019KT 05/M06 A2998 RMK A01 T00451062  RH  046%=      5-min Rain = 0
KQU1 131453Z 22019KT 05/M06 A2998 RMK A01 T00461062  RH  046%=      5-min Rain = 0
KQU1 131454Z 22016KT 05/M06 A2997 RMK A01 T00461062  RH  045%=      5-min Rain = 0
KQU1 131455Z 22019KT 05/M06 A2997 RMK A01 T00461062  RH  045%=      5-min Rain = 0
KQU1 131456Z 22016KT 05/M06 A2997 RMK A01 T00471061  RH  045%=      5-min Rain = 0
KQU1 131457Z 21016KT 05/M06 A2997 RMK A01 T00471062  RH  045%=      5-min Rain = 0
KQU1 131458Z 21013KT 05/M06 A2997 RMK A01 T00481061  RH  045%=      5-min Rain = 0
KQU1 131459Z 22015KT 05/M06 A2998 RMK A01 T00491060  RH  045%=      5-min Rain = 0
KQU1 131500Z 22014KT 05/M06 A2998 RMK A01 T00491060  RH  045%=      5-min Rain = 0
KQU1 131501Z 22018G23KT 05/M06 A2998 RMK A01 T00501060  RH  045%=      5-min Rain = 0
KQU1 131502Z 21015G20KT 05/M06 A2998 RMK A01 T00501060  RH  045%=      5-min Rain = 0
KQU1 131503Z 21015G20KT 05/M06 A2998 RMK A01 T00511060  RH  045%=      5-min Rain = 0
KQU1 131504Z 21014G19KT 05/M06 A2998 RMK A01 T00521059  RH  045%=      5-min Rain = 0
KQU1 131505Z 22018KT 05/M06 A2998 RMK A01 T00531058  RH  044%=      5-min Rain = 0
KQU1 131506Z 22015KT 05/M06 A2998 RMK A01 T00541058  RH  044%=      5-min Rain = 0
KQU1 131507Z 21014G21KT 05/M06 A2998 RMK A01 T00541058  RH  044%=      5-min Rain = 0
KQU1 131508Z 21015G20KT 06/M06 A2998 RMK A01 T00551059  RH  044%=      5-min Rain = 0
KQU1 131509Z 20015KT 06/M06 A2998 RMK A01 T00551058  RH  044%=      5-min Rain = 0
KQU1 131510Z 21013KT 06/M06 A2998 RMK A01 T00561057  RH  044%=      5-min Rain = 0
KQU1 131511Z 20015KT 06/M06 A2998 RMK A01 T00571058  RH  044%=      5-min Rain = 0
KQU1 131512Z 20014KT 06/M06 A2998 RMK A01 T00571057  RH  044%=      5-min Rain = 0
KQU1 131513Z 21013KT 06/M06 A2998 RMK A01 T00581056  RH  044%=      5-min Rain = 0
KQU1 131514Z 20012G19KT 06/M06 A2998 RMK A01 T00591056  RH  043%=      5-min Rain = 0
KQU1 131515Z 22015KT 06/M06 A2998 RMK A01 T00601056  RH  043%=      5-min Rain = 0
KQU1 131516Z 21015G20KT 06/M06 A2998 RMK A01 T00601056  RH  043%=      5-min Rain = 0
KQU1 131517Z 21013G18KT 06/M06 A2998 RMK A01 T00611055  RH  043%=      5-min Rain = 0
KQU1 131518Z 22015KT 06/M06 A2998 RMK A01 T00621056  RH  043%=      5-min Rain = 0
KQU1 131519Z 22014KT 06/M06 A2998 RMK A01 T00621055  RH  043%=      5-min Rain = 0
KQU1 131520Z 20013KT 06/M05 A2998 RMK A01 T00631054  RH  043%=      5-min Rain = 0
KQU1 131521Z 22016KT 06/M06 A2998 RMK A01 T00641055  RH  042%=      5-min Rain = 0
KQU1 131522Z 21014KT 06/M06 A2998 RMK A01 T00641055  RH  042%=      5-min Rain = 0
KQU1 131523Z 21014KT 06/M06 A2998 RMK A01 T00641055  RH  042%=      5-min Rain = 0
KQU1 131524Z 20011KT 07/M05 A2998 RMK A01 T00651054  RH  043%=      5-min Rain = 0
KQU1 131525Z 19009KT 07/M05 A2998 RMK A01 T00661054  RH  042%=      5-min Rain = 0
KQU1 131526Z 21009KT 07/M05 A2998 RMK A01 T00681051  RH  042%=      5-min Rain = 0
KQU1 131527Z 21013KT 07/M05 A2998 RMK A01 T00691052  RH  042%=      5-min Rain = 0
KQU1 131528Z 21012KT 07/M05 A2998 RMK A01 T00691054  RH  041%=      5-min Rain = 0
KQU1 131529Z 21011KT 07/M05 A2998 RMK A01 T00691053  RH  041%=      5-min Rain = 0
KQU1 131530Z 21012KT 07/M05 A2998 RMK A01 T00701053  RH  041%=      5-min Rain = 0
KQU1 131531Z 22012G17KT 07/M05 A2998 RMK A01 T00701054  RH  041%=      5-min Rain = 0
KQU1 131532Z 22012KT 07/M05 A2998 RMK A01 T00701053  RH  041%=      5-min Rain = 0
KQU1 131533Z 21011KT 07/M05 A2999 RMK A01 T00701053  RH  041%=      5-min Rain = 0
KQU1 131534Z 22011KT 07/M05 A2998 RMK A01 T00711053  RH  041%=      5-min Rain = 0
KQU1 131535Z 22012KT 07/M05 A2998 RMK A01 T00721053  RH  041%=      5-min Rain = 0
KQU1 131536Z 23011KT 07/M05 A2998 RMK A01 T00731052  RH  041%=      5-min Rain = 0
KQU1 131537Z 23009KT 07/M05 A2998 RMK A01 T00741052  RH  040%=      5-min Rain = 0
KQU1 131538Z 22009KT 08/M05 A2998 RMK A01 T00751052  RH  040%=      5-min Rain = 0
KQU1 131539Z 22010KT 08/M05 A2998 RMK A01 T00761050  RH  040%=      5-min Rain = 0
KQU1 131540Z 21012KT 08/M05 A2998 RMK A01 T00781050  RH  040%=      5-min Rain = 0
KQU1 131541Z 21011KT 08/M05 A2998 RMK A01 T00781052  RH  039%=      5-min Rain = 0
KQU1 131542Z 21010KT 08/M05 A2998 RMK A01 T00781051  RH  040%=      5-min Rain = 0
KQU1 131543Z 21011KT 08/M05 A2998 RMK A01 T00791050  RH  040%=      5-min Rain = 0
KQU1 131544Z 22011KT 08/M05 A2998 RMK A01 T00801051  RH  039%=      5-min Rain = 0
KQU1 131545Z 22009KT 08/M05 A2998 RMK A01 T00791051  RH  039%=      5-min Rain = 0
KQU1 131546Z 22009KT 08/M05 A2998 RMK A01 T00801049  RH  039%=      5-min Rain = 0
KQU1 131547Z 22010KT 08/M05 A2998 RMK A01 T00821049  RH  039%=      5-min Rain = 0
KQU1 131548Z 24011KT 08/M05 A2998 RMK A01 T00831050  RH  039%=      5-min Rain = 0
KQU1 131549Z 23013KT 08/M05 A2999 RMK A01 T00821052  RH  038%=      5-min Rain = 0
KQU1 131550Z 22011KT 08/M05 A2999 RMK A01 T00811051  RH  039%=      5-min Rain = 0
KQU1 131551Z 22013KT 08/M05 A2999 RMK A01 T00811050  RH  039%=      5-min Rain = 0
KQU1 131552Z 23011KT 08/M05 A2998 RMK A01 T00811051  RH  039%=      5-min Rain = 0
KQU1 131553Z 23010KT 08/M05 A2998 RMK A01 T00831047  RH  039%=      5-min Rain = 0
KQU1 131554Z 23011KT 08/M05 A2998 RMK A01 T00841049  RH  038%=      5-min Rain = 0
KQU1 131555Z 23011KT 09/M05 A2998 RMK A01 T00851049  RH  038%=      5-min Rain = 0
KQU1 131556Z 23011KT 09/M05 A2998 RMK A01 T00851049  RH  038%=      5-min Rain = 0
KQU1 131557Z 22010KT 09/M05 A2998 RMK A01 T00861048  RH  038%=      5-min Rain = 0
KQU1 131558Z 21012KT 09/M05 A2998 RMK A01 T00871048  RH  038%=      5-min Rain = 0
KQU1 131559Z 21011KT 09/M05 A2998 RMK A01 T00871048  RH  038%=      5-min Rain = 0
KQU1 131600Z 20014KT 09/M05 A2998 RMK A01 T00881047  RH  038%=      5-min Rain = 0
KQU1 131601Z 21012KT 09/M05 A2998 RMK A01 T00881046  RH  038%=      5-min Rain = 0
KQU1 131602Z 21012KT 09/M05 A2998 RMK A01 T00891046  RH  038%=      5-min Rain = 0
KQU1 131603Z 22015KT 09/M05 A2998 RMK A01 T00901048  RH  037%=      5-min Rain = 0
KQU1 131604Z 22013G19KT 09/M05 A2998 RMK A01 T00891048  RH  038%=      5-min Rain = 0
KQU1 131605Z 22013KT 09/M05 A2998 RMK A01 T00891047  RH  038%=      5-min Rain = 0
KQU1 131606Z 21013KT 09/M05 A2998 RMK A01 T00891047  RH  038%=      5-min Rain = 0
KQU1 131607Z 21011KT 09/M05 A2998 RMK A01 T00891047  RH  038%=      5-min Rain = 0
KQU1 131608Z 22011KT 09/M05 A2998 RMK A01 T00901045  RH  038%=      5-min Rain = 0
KQU1 131609Z 22013G18KT 09/M04 A2998 RMK A01 T00911044  RH  038%=      5-min Rain = 0
KQU1 131610Z 21012KT 09/M05 A2998 RMK A01 T00921045  RH  038%=      5-min Rain = 0
KQU1 131611Z 21013KT 09/M04 A2998 RMK A01 T00921044  RH  038%=      5-min Rain = 0
KQU1 131612Z 21014KT 09/M04 A2998 RMK A01 T00921044  RH  038%=      5-min Rain = 0
KQU1 131613Z 22013KT 09/M04 A2998 RMK A01 T00941043  RH  038%=      5-min Rain = 0
KQU1 131614Z 22014G19KT 09/M04 A2998 RMK A01 T00931044  RH  038%=      5-min Rain = 0
KQU1 131615Z 21015KT 09/M04 A2998 RMK A01 T00931043  RH  038%=      5-min Rain = 0
KQU1 131616Z 21017KT 09/M04 A2998 RMK A01 T00931043  RH  038%=      5-min Rain = 0
KQU1 131617Z 21013G18KT 09/M04 A2998 RMK A01 T00941042  RH  038%=      5-min Rain = 0
KQU1 131618Z 21012KT 09/M04 A2998 RMK A01 T00941042  RH  038%=      5-min Rain = 0
KQU1 131619Z 20013KT 10/M04 A2998 RMK A01 T00951042  RH  038%=      5-min Rain = 0
KQU1 131620Z 21014KT 09/M04 A2998 RMK A01 T00941043  RH  038%=      5-min Rain = 0
KQU1 131621Z 22011G16KT 09/M04 A2998 RMK A01 T00941041  RH  038%=      5-min Rain = 0
KQU1 131622Z 22011KT 10/M04 A2998 RMK A01 T00951040  RH  038%=      5-min Rain = 0
KQU1 131623Z 22013KT 10/M04 A2998 RMK A01 T00971042  RH  037%=      5-min Rain = 0
KQU1 131624Z 22011KT 10/M04 A2998 RMK A01 T00961043  RH  037%=      5-min Rain = 0
KQU1 131625Z 21013KT 10/M04 A2998 RMK A01 T00971041  RH  038%=      5-min Rain = 0
KQU1 131626Z 23012KT 10/M04 A2998 RMK A01 T00981042  RH  037%=      5-min Rain = 0
KQU1 131627Z 22011KT 10/M04 A2998 RMK A01 T00981041  RH  037%=      5-min Rain = 0
KQU1 131628Z 22010KT 10/M04 A2998 RMK A01 T00981042  RH  037%=      5-min Rain = 0
KQU1 131629Z 22011KT 10/M04 A2998 RMK A01 T00981041  RH  037%=      5-min Rain = 0
KQU1 131630Z 23010KT 10/M04 A2998 RMK A01 T00991040  RH  037%=      5-min Rain = 0
KQU1 131631Z 22010KT 10/M04 A2998 RMK A01 T01011041  RH  036%=      5-min Rain = 0
KQU1 131632Z 22013KT 10/M04 A2998 RMK A01 T01001041  RH  037%=      5-min Rain = 0
KQU1 131633Z 23012KT 10/M04 A2999 RMK A01 T01001042  RH  037%=      5-min Rain = 0
KQU1 131634Z 22013KT 10/M04 A2998 RMK A01 T01001041  RH  037%=      5-min Rain = 0
KQU1 131635Z 23013KT 10/M04 A2998 RMK A01 T01001042  RH  037%=      5-min Rain = 0
KQU1 131636Z 22014KT 10/M04 A2998 RMK A01 T01001041  RH  037%=      5-min Rain = 0
KQU1 131637Z 22015KT 10/M04 A2998 RMK A01 T01011042  RH  036%=      5-min Rain = 0
KQU1 131638Z 23012KT 10/M04 A2998 RMK A01 T01011040  RH  037%=      5-min Rain = 0
KQU1 131639Z 22012KT 10/M04 A2998 RMK A01 T01031038  RH  037%=      5-min Rain = 0
KQU1 131640Z 21015KT 10/M04 A2998 RMK A01 T01041041  RH  036%=      5-min Rain = 0
KQU1 131641Z 22015KT 10/M04 A2998 RMK A01 T01041041  RH  036%=      5-min Rain = 0
KQU1 131642Z 23014KT 10/M04 A2998 RMK A01 T01041041  RH  036%=      5-min Rain = 0
KQU1 131643Z 21015KT 10/M04 A2997 RMK A01 T01031041  RH  036%=      5-min Rain = 0
KQU1 131644Z 22013KT 10/M04 A2997 RMK A01 T01041038  RH  037%=      5-min Rain = 0
KQU1 131645Z 21015KT 11/M04 A2997 RMK A01 T01071039  RH  036%=      5-min Rain = 0
KQU1 131646Z 23013G18KT 11/M04 A2997 RMK A01 T01071040  RH  035%=      5-min Rain = 0
KQU1 131647Z 24016KT 11/M04 A2997 RMK A01 T01081039  RH  035%=      5-min Rain = 0
KQU1 131648Z 23013KT 11/M04 A2997 RMK A01 T01101038  RH  035%=      5-min Rain = 0
KQU1 131649Z 23017KT 11/M04 A2997 RMK A01 T01101040  RH  035%=      5-min Rain = 0
KQU1 131650Z 22018KT 11/M04 A2997 RMK A01 T01101039  RH  035%=      5-min Rain = 0
KQU1 131651Z 22017KT 11/M04 A2997 RMK A01 T01091041  RH  035%=      5-min Rain = 0
KQU1 131652Z 23017KT 11/M04 A2997 RMK A01 T01091040  RH  035%=      5-min Rain = 0
KQU1 131653Z 24017KT 11/M04 A2997 RMK A01 T01081040  RH  035%=      5-min Rain = 0
KQU1 131654Z 24015KT 11/M04 A2997 RMK A01 T01091039  RH  035%=      5-min Rain = 0
KQU1 131655Z 25012KT 11/M04 A2997 RMK A01 T01101038  RH  035%=      5-min Rain = 0
KQU1 131656Z 25011KT 11/M04 A2997 RMK A01 T01111038  RH  035%=      5-min Rain = 0
KQU1 131657Z 24012KT 11/M04 A2997 RMK A01 T01141035  RH  035%=      5-min Rain = 0
KQU1 131658Z 23013KT 12/M04 A2997 RMK A01 T01161038  RH  034%=      5-min Rain = 0
KQU1 131659Z 23016KT 12/M04 A2997 RMK A01 T01151039  RH  034%=      5-min Rain = 0
KQU1 131700Z 23016KT 11/M04 A2997 RMK A01 T01131038  RH  034%=      5-min Rain = 0
KQU1 131701Z 22018KT 11/M04 A2997 RMK A01 T01131037  RH  035%=      5-min Rain = 0
KQU1 131702Z 22016KT 11/M04 A2997 RMK A01 T01131038  RH  035%=      5-min Rain = 0
KQU1 131703Z 21015KT 11/M04 A2997 RMK A01 T01121037  RH  035%=      5-min Rain = 0
KQU1 131704Z 21014KT 11/M04 A2997 RMK A01 T01131036  RH  035%=      5-min Rain = 0
KQU1 131705Z 22014KT 11/M04 A2996 RMK A01 T01131038  RH  034%=      5-min Rain = 0
KQU1 131706Z 24013KT 11/M04 A2996 RMK A01 T01131038  RH  035%=      5-min Rain = 0
KQU1 131707Z 24013KT 12/M04 A2996 RMK A01 T01151035  RH  035%=      5-min Rain = 0
KQU1 131708Z 22013G18KT 12/M03 A2996 RMK A01 T01171033  RH  035%=      5-min Rain = 0
KQU1 131709Z 21016KT 12/M04 A2997 RMK A01 T01191035  RH  034%=      5-min Rain = 0
KQU1 131710Z 21015KT 12/M04 A2997 RMK A01 T01181035  RH  034%=      5-min Rain = 0
KQU1 131711Z 23015KT 12/M04 A2997 RMK A01 T01181036  RH  034%=      5-min Rain = 0
KQU1 131712Z 23015KT 12/M03 A2997 RMK A01 T01181034  RH  034%=      5-min Rain = 0
KQU1 131713Z 23013KT 12/M03 A2996 RMK A01 T01181034  RH  034%=      5-min Rain = 0
KQU1 131714Z 21013KT 12/M03 A2996 RMK A01 T01201033  RH  034%=      5-min Rain = 0
KQU1 131715Z 21013KT 12/M03 A2996 RMK A01 T01201032  RH  034%=      5-min Rain = 0
KQU1 131716Z 22012KT 12/M03 A2996 RMK A01 T01211033  RH  034%=      5-min Rain = 0
KQU1 131717Z 20014KT 12/M03 A2996 RMK A01 T01221032  RH  034%=      5-min Rain = 0
KQU1 131718Z 20014KT 12/M03 A2996 RMK A01 T01221034  RH  034%=      5-min Rain = 0
KQU1 131719Z 23014KT 12/M03 A2996 RMK A01 T01231033  RH  033%=      5-min Rain = 0
KQU1 131720Z 23013KT 12/M04 A2996 RMK A01 T01231035  RH  033%=      5-min Rain = 0
KQU1 131721Z 22012KT 12/M04 A2996 RMK A01 T01231035  RH  033%=      5-min Rain = 0
KQU1 131722Z 22011KT 12/M04 A2996 RMK A01 T01231035  RH  033%=      5-min Rain = 0
KQU1 131723Z 23013KT 12/M03 A2996 RMK A01 T01241034  RH  033%=      5-min Rain = 0
KQU1 131724Z 21011KT 12/M03 A2996 RMK A01 T01241033  RH  033%=      5-min Rain = 0
KQU1 131725Z 21013KT 13/M03 A2996 RMK A01 T01251032  RH  033%=      5-min Rain = 0
KQU1 131726Z 21013KT 13/M03 A2996 RMK A01 T01261033  RH  033%=      5-min Rain = 0
KQU1 131727Z 22013KT 13/M03 A2996 RMK A01 T01271034  RH  033%=      5-min Rain = 0
KQU1 131728Z 22014KT 13/M04 A2996 RMK A01 T01261035  RH  032%=      5-min Rain = 0
KQU1 131729Z 21011KT 13/M03 A2995 RMK A01 T01251034  RH  033%=      5-min Rain = 0
KQU1 131730Z 22011KT 13/M03 A2995 RMK A01 T01281030  RH  033%=      5-min Rain = 0
KQU1 131731Z 22012KT 13/M03 A2995 RMK A01 T01301034  RH  032%=      5-min Rain = 0
KQU1 131732Z 22009KT 13/M03 A2995 RMK A01 T01281034  RH  032%=      5-min Rain = 0
KQU1 131733Z 20012KT 13/M03 A2995 RMK A01 T01291031  RH  033%=      5-min Rain = 0
KQU1 131734Z 21016KT 13/M03 A2995 RMK A01 T01311031  RH  032%=      5-min Rain = 0
KQU1 131735Z 22014KT 13/M03 A2995 RMK A01 T01311032  RH  032%=      5-min Rain = 0
KQU1 131736Z 22013KT 13/M03 A2995 RMK A01 T01301032  RH  032%=      5-min Rain = 0
KQU1 131737Z 21012KT 13/M03 A2995 RMK A01 T01311031  RH  032%=      5-min Rain = 0
KQU1 131738Z 22014KT 13/M03 A2995 RMK A01 T01321031  RH  032%=      5-min Rain = 0
KQU1 131739Z 21011KT 13/M03 A2995 RMK A01 T01331031  RH  032%=      5-min Rain = 0
KQU1 131740Z 21011KT 13/M03 A2995 RMK A01 T01341031  RH  032%=      5-min Rain = 0
KQU1 131741Z 22011KT 13/M03 A2995 RMK A01 T01341031  RH  032%=      5-min Rain = 0
KQU1 131742Z 22014KT 14/M03 A2995 RMK A01 T01351030  RH  032%=      5-min Rain = 0
KQU1 131743Z 21013KT 14/M03 A2995 RMK A01 T01361032  RH  031%=      5-min Rain = 0
KQU1 131744Z 22013KT 14/M03 A2995 RMK A01 T01351033  RH  031%=      5-min Rain = 0
KQU1 131745Z 23012KT 14/M03 A2995 RMK A01 T01351032  RH  031%=      5-min Rain = 0
KQU1 131746Z 21011KT 14/M03 A2995 RMK A01 T01361029  RH  032%=      5-min Rain = 0
KQU1 131747Z 21011KT 14/M03 A2995 RMK A01 T01371029  RH  032%=      5-min Rain = 0
KQU1 131748Z 20011KT 14/M03 A2995 RMK A01 T01381030  RH  031%=      5-min Rain = 0
KQU1 131749Z 19012KT 14/M03 A2995 RMK A01 T01391029  RH  031%=      5-min Rain = 0
KQU1 131750Z 21015KT 14/M03 A2995 RMK A01 T01401030  RH  031%=      5-min Rain = 0
KQU1 131751Z 21014KT 14/M03 A2995 RMK A01 T01401033  RH  030%=      5-min Rain = 0
KQU1 131752Z 21013KT 14/M03 A2995 RMK A01 T01391032  RH  030%=      5-min Rain = 0
KQU1 131753Z 22012KT 14/M03 A2995 RMK A01 T01391033  RH  030%=      5-min Rain = 0
KQU1 131754Z 21012KT 14/M03 A2995 RMK A01 T01381032  RH  030%=      5-min Rain = 0
KQU1 131755Z 22011KT 14/M03 A2995 RMK A01 T01391033  RH  030%=      5-min Rain = 0
KQU1 131756Z 21012KT 14/M03 A2995 RMK A01 T01381033  RH  030%=      5-min Rain = 0
KQU1 131757Z 21012KT 14/M03 A2994 RMK A01 T01391031  RH  031%=      5-min Rain = 0
KQU1 131758Z 21015KT 14/M03 A2994 RMK A01 T01411033  RH  030%=      5-min Rain = 0
KQU1 131759Z 21015KT 14/M03 A2994 RMK A01 T01411033  RH  030%=      5-min Rain = 0
KQU1 131800Z 21014KT 14/M03 A2994 RMK A01 T01411034  RH  029%=      5-min Rain = 0
KQU1 131801Z 21015KT 14/M03 A2994 RMK A01 T01401034  RH  030%=      5-min Rain = 0
KQU1 131802Z 21013KT 14/M04 A2994 RMK A01 T01391035  RH  030%=      5-min Rain = 0
KQU1 131803Z 22011KT 14/M03 A2994 RMK A01 T01401032  RH  030%=      5-min Rain = 0
KQU1 131804Z 21012KT 14/M03 A2994 RMK A01 T01411034  RH  030%=      5-min Rain = 0
KQU1 131805Z 20012KT 14/M03 A2994 RMK A01 T01421034  RH  029%=      5-min Rain = 0
KQU1 131806Z 19013KT 14/M03 A2994 RMK A01 T01431033  RH  029%=      5-min Rain = 0
KQU1 131807Z 20015KT 15/M03 A2994 RMK A01 T01451032  RH  029%=      5-min Rain = 0
KQU1 131808Z 20013KT 15/M03 A2994 RMK A01 T01471031  RH  029%=      5-min Rain = 0
KQU1 131809Z 20015KT 15/M03 A2994 RMK A01 T01481032  RH  029%=      5-min Rain = 0
KQU1 131810Z 20012KT 15/M03 A2994 RMK A01 T01481030  RH  029%=      5-min Rain = 0
KQU1 131811Z 20010KT 15/M03 A2994 RMK A01 T01511029  RH  029%=      5-min Rain = 0
KQU1 131812Z 19011KT 15/M03 A2994 RMK A01 T01511031  RH  028%=      5-min Rain = 0
KQU1 131813Z 18013KT 15/M03 A2994 RMK A01 T01501032  RH  028%=      5-min Rain = 0
KQU1 131814Z 21014KT 15/M03 A2994 RMK A01 T01501032  RH  028%=      5-min Rain = 0
KQU1 131815Z 24012KT 15/M04 A2993 RMK A01 T01501035  RH  028%=      5-min Rain = 0
KQU1 131816Z 22011KT 15/M04 A2993 RMK A01 T01491036  RH  028%=      5-min Rain = 0
KQU1 131817Z 20015KT 15/M03 A2993 RMK A01 T01491034  RH  028%=      5-min Rain = 0
KQU1 131818Z 21013KT 15/M03 A2993 RMK A01 T01491034  RH  028%=      5-min Rain = 0
KQU1 131819Z 23012KT 15/M03 A2994 RMK A01 T01501033  RH  028%=      5-min Rain = 0
KQU1 131820Z 22011KT 15/M04 A2993 RMK A01 T01501035  RH  028%=      5-min Rain = 0
KQU1 131821Z 23011G16KT 15/M04 A2993 RMK A01 T01491035  RH  028%=      5-min Rain = 0
KQU1 131822Z 23013KT 15/M03 A2993 RMK A01 T01481034  RH  028%=      5-min Rain = 0
KQU1 131823Z 22014KT 15/M03 A2993 RMK A01 T01501034  RH  028%=      5-min Rain = 0
KQU1 131824Z 23016KT 15/M04 A2993 RMK A01 T01501036  RH  027%=      5-min Rain = 0
KQU1 131825Z 24015KT 15/M04 A2993 RMK A01 T01501036  RH  028%=      5-min Rain = 0
KQU1 131826Z 24013KT 15/M04 A2993 RMK A01 T01511035  RH  028%=      5-min Rain = 0
KQU1 131827Z 22010KT 15/M04 A2993 RMK A01 T01501036  RH  028%=      5-min Rain = 0
KQU1 131828Z 20013KT 15/M03 A2993 RMK A01 T01511031  RH  028%=      5-min Rain = 0
KQU1 131829Z 21014KT 15/M03 A2993 RMK A01 T01521034  RH  028%=      5-min Rain = 0
KQU1 131830Z 23012KT 15/M03 A2993 RMK A01 T01521034  RH  027%=      5-min Rain = 0
KQU1 131831Z 21010KT 15/M04 A2993 RMK A01 T01541035  RH  027%=      5-min Rain = 0
KQU1 131832Z 21010G16KT 15/M03 A2993 RMK A01 T01541034  RH  027%=      5-min Rain = 0
KQU1 131833Z 20015KT 16/M03 A2993 RMK A01 T01551034  RH  027%=      5-min Rain = 0
KQU1 131834Z 21015KT 15/M04 A2992 RMK A01 T01531036  RH  027%=      5-min Rain = 0
KQU1 131835Z 20012KT 15/M04 A2992 RMK A01 T01521035  RH  027%=      5-min Rain = 0
KQU1 131836Z 20012KT 15/M03 A2992 RMK A01 T01511034  RH  028%=      5-min Rain = 0
KQU1 131837Z 20013KT 15/M03 A2992 RMK A01 T01521034  RH  028%=      5-min Rain = 0
KQU1 131838Z 19013KT 15/M04 A2992 RMK A01 T01521035  RH  027%=      5-min Rain = 0
KQU1 131839Z 19012KT 15/M03 A2992 RMK A01 T01531034  RH  028%=      5-min Rain = 0
KQU1 131840Z 20014G20KT 15/M03 A2991 RMK A01 T01541033  RH  027%=      5-min Rain = 0
KQU1 131841Z 21014G19KT 15/M04 A2991 RMK A01 T01541036  RH  027%=      5-min Rain = 0
KQU1 131842Z 20016KT 16/M04 A2991 RMK A01 T01551035  RH  027%=      5-min Rain = 0
KQU1 131843Z 19016KT 16/M04 A2991 RMK A01 T01551035  RH  027%=      5-min Rain = 0
KQU1 131844Z 21013G18KT 16/M04 A2991 RMK A01 T01551035  RH  027%=      5-min Rain = 0
KQU1 131845Z 20015KT 16/M03 A2991 RMK A01 T01561033  RH  027%=      5-min Rain = 0
KQU1 131846Z 22014KT 16/M03 A2991 RMK A01 T01571032  RH  027%=      5-min Rain = 0
KQU1 131847Z 21012KT 16/M04 A2991 RMK A01 T01581035  RH  026%=      5-min Rain = 0
KQU1 131848Z 21011G17KT 16/M03 A2991 RMK A01 T01571033  RH  027%=      5-min Rain = 0
KQU1 131849Z 21017KT 16/M03 A2991 RMK A01 T01581033  RH  027%=      5-min Rain = 0
KQU1 131850Z 21015KT 16/M03 A2991 RMK A01 T01571034  RH  027%=      5-min Rain = 0
KQU1 131851Z 21013KT 16/M03 A2991 RMK A01 T01571034  RH  027%=      5-min Rain = 0
KQU1 131852Z 21010KT 16/M03 A299 RMK A01 T01571032  RH  027%=      5-min Rain = 0
KQU1 131853Z 21015KT 16/M03 A299 RMK A01 T01591032  RH  027%=      5-min Rain = 0
KQU1 131854Z 21015KT 16/M03 A299 RMK A01 T01601033  RH  026%=      5-min Rain = 0
KQU1 131855Z 19012KT 16/M03 A299 RMK A01 T01611032  RH  026%=      5-min Rain = 0
KQU1 131856Z 19016KT 16/M03 A299 RMK A01 T01611034  RH  026%=      5-min Rain = 0
KQU1 131857Z 21016KT 16/M03 A299 RMK A01 T01621033  RH  026%=      5-min Rain = 0
KQU1 131858Z 22013KT 16/M03 A299 RMK A01 T01631033  RH  026%=      5-min Rain = 0
KQU1 131859Z 21010KT 16/M03 A299 RMK A01 T01631033  RH  026%=      5-min Rain = 0
KQU1 131900Z 22014KT 16/M03 A299 RMK A01 T01631033  RH  026%=      5-min Rain = 0
KQU1 131901Z 21013KT 16/M03 A299 RMK A01 T01641033  RH  026%=      5-min Rain = 0
KQU1 131902Z 21014KT 16/M03 A299 RMK A01 T01641034  RH  026%=      5-min Rain = 0
KQU1 131903Z 20013KT 16/M03 A299 RMK A01 T01631034  RH  026%=      5-min Rain = 0
KQU1 131904Z 21013KT 16/M03 A299 RMK A01 T01631034  RH  026%=      5-min Rain = 0
KQU1 131905Z 21011KT 16/M04 A299 RMK A01 T01631035  RH  026%=      5-min Rain = 0
KQU1 131906Z 21014KT 16/M03 A299 RMK A01 T01631034  RH  026%=      5-min Rain = 0
KQU1 131907Z 19013KT 16/M04 A299 RMK A01 T01641035  RH  025%=      5-min Rain = 0
KQU1 131908Z 20012KT 16/M04 A299 RMK A01 T01631035  RH  026%=      5-min Rain = 0
KQU1 131909Z 20011KT 16/M03 A2989 RMK A01 T01641034  RH  026%=      5-min Rain = 0
KQU1 131910Z 22010KT 17/M03 A2989 RMK A01 T01651033  RH  026%=      5-min Rain = 0
KQU1 131911Z 21010KT 17/M04 A2989 RMK A01 T01651036  RH  025%=      5-min Rain = 0
KQU1 131912Z 21010KT 17/M03 A2989 RMK A01 T01651033  RH  026%=      5-min Rain = 0
KQU1 131913Z 21011G16KT 17/M03 A2989 RMK A01 T01661034  RH  025%=      5-min Rain = 0
KQU1 131914Z 21011KT 17/M04 A2989 RMK A01 T01661035  RH  025%=      5-min Rain = 0
KQU1 131915Z 21010KT 17/M04 A2989 RMK A01 T01661035  RH  025%=      5-min Rain = 0
KQU1 131916Z 20012KT 17/M03 A2989 RMK A01 T01671033  RH  025%=      5-min Rain = 0
KQU1 131917Z 19013KT 17/M03 A2989 RMK A01 T01691033  RH  025%=      5-min Rain = 0
KQU1 131918Z 19011KT 17/M04 A2989 RMK A01 T01671035  RH  025%=      5-min Rain = 0
KQU1 131919Z 19011KT 17/M03 A2989 RMK A01 T01671033  RH  025%=      5-min Rain = 0
KQU1 131920Z 19010KT 17/M03 A2989 RMK A01 T01691030  RH  025%=      5-min Rain = 0
KQU1 131921Z 21011KT 17/M03 A2989 RMK A01 T01711032  RH  025%=      5-min Rain = 0
KQU1 131922Z 22010KT 17/M03 A2989 RMK A01 T01721032  RH  025%=      5-min Rain = 0
KQU1 131923Z 21009KT 17/M03 A2989 RMK A01 T01711032  RH  025%=      5-min Rain = 0
KQU1 131924Z 21013KT 17/M03 A2989 RMK A01 T01721033  RH  025%=      5-min Rain = 0
KQU1 131925Z 22010KT 17/M03 A2989 RMK A01 T01701034  RH  024%=      5-min Rain = 0
KQU1 131926Z 22008KT 17/M03 A2989 RMK A01 T01691034  RH  025%=      5-min Rain = 0
KQU1 131927Z 21007G14KT 17/M03 A2989 RMK A01 T01691033  RH  025%=      5-min Rain = 0
KQU1 131928Z 21011KT 17/M03 A2989 RMK A01 T01701031  RH  025%=      5-min Rain = 0
KQU1 131929Z 20010KT 17/M03 A2989 RMK A01 T01711032  RH  025%=      5-min Rain = 0
KQU1 131930Z 19010G15KT 17/M03 A2988 RMK A01 T01731032  RH  025%=      5-min Rain = 0
KQU1 131931Z 19013KT 17/M03 A2988 RMK A01 T01731032  RH  024%=      5-min Rain = 0
KQU1 131932Z 20014KT 17/M03 A2988 RMK A01 T01731033  RH  024%=      5-min Rain = 0
KQU1 131933Z 22010KT 17/M03 A2988 RMK A01 T01741032  RH  024%=      5-min Rain = 0
KQU1 131934Z 24009KT 17/M03 A2988 RMK A01 T01741034  RH  024%=      5-min Rain = 0
KQU1 131935Z 21011KT 17/M03 A2988 RMK A01 T01741033  RH  024%=      5-min Rain = 0
KQU1 131936Z 20012KT 18/M03 A2988 RMK A01 T01751032  RH  024%=      5-min Rain = 0
KQU1 131937Z 22011KT 18/M03 A2988 RMK A01 T01751033  RH  024%=      5-min Rain = 0
KQU1 131938Z 20012G17KT 18/M03 A2988 RMK A01 T01751032  RH  024%=      5-min Rain = 0
KQU1 131939Z 20011KT 18/M03 A2988 RMK A01 T01761032  RH  024%=      5-min Rain = 0
KQU1 131940Z 21012KT 18/M03 A2988 RMK A01 T01771031  RH  024%=      5-min Rain = 0
KQU1 131941Z 23009KT 18/M03 A2988 RMK A01 T01771034  RH  023%=      5-min Rain = 0
KQU1 131942Z 24008KT 18/M04 A2988 RMK A01 T01771035  RH  023%=      5-min Rain = 0
KQU1 131943Z 24006KT 18/M03 A2988 RMK A01 T01781033  RH  024%=      5-min Rain = 0
KQU1 131944Z 27009KT 18/M04 A2988 RMK A01 T01771037  RH  023%=      5-min Rain = 0
KQU1 131945Z 23008KT 18/M04 A2988 RMK A01 T01771036  RH  023%=      5-min Rain = 0
KQU1 131946Z 23003KT 18/M04 A2988 RMK A01 T01761038  RH  023%=      5-min Rain = 0
KQU1 131947Z 22006KT 18/M03 A2988 RMK A01 T01771034  RH  023%=      5-min Rain = 0
KQU1 131948Z 22009KT 18/M03 A2988 RMK A01 T01781034  RH  023%=      5-min Rain = 0
KQU1 131949Z 22014KT 18/M03 A2988 RMK A01 T01781034  RH  023%=      5-min Rain = 0
KQU1 131950Z 20010G15KT 18/M03 A2988 RMK A01 T01781034  RH  023%=      5-min Rain = 0
KQU1 131951Z 19007KT 18/M04 A2988 RMK A01 T01771035  RH  023%=      5-min Rain = 0
KQU1 131952Z 21012KT 18/M03 A2987 RMK A01 T01771034  RH  024%=      5-min Rain = 0
KQU1 131953Z 23009G14KT 18/M03 A2987 RMK A01 T01771033  RH  024%=      5-min Rain = 0
KQU1 131954Z 21006KT 18/M03 A2987 RMK A01 T01791030  RH  024%=      5-min Rain = 0
KQU1 131955Z 21009KT 18/M03 A2987 RMK A01 T01821031  RH  023%=      5-min Rain = 0
KQU1 131956Z 21014KT 18/M03 A2987 RMK A01 T01821034  RH  023%=      5-min Rain = 0
KQU1 131957Z 20014KT 18/M04 A2987 RMK A01 T01811035  RH  023%=      5-min Rain = 0
KQU1 131958Z 20013KT 18/M03 A2987 RMK A01 T01821034  RH  023%=      5-min Rain = 0
KQU1 131959Z 21015KT 18/M04 A2987 RMK A01 T01821035  RH  023%=      5-min Rain = 0
KQU1 132000Z 22014KT 18/M04 A2987 RMK A01 T01831035  RH  023%=      5-min Rain = 0
KQU1 132001Z 22014KT 18/M04 A2987 RMK A01 T01831036  RH  022%=      5-min Rain = 0
KQU1 132002Z 23009KT 18/M04 A2987 RMK A01 T01821037  RH  022%=      5-min Rain = 0
KQU1 132003Z 23008KT 18/M04 A2987 RMK A01 T01821036  RH  022%=      5-min Rain = 0
KQU1 132004Z 22006KT 18/M04 A2987 RMK A01 T01841035  RH  022%=      5-min Rain = 0
KQU1 132005Z 21011KT 18/M03 A2987 RMK A01 T01841033  RH  023%=      5-min Rain = 0
KQU1 132006Z 22010KT 19/M03 A2987 RMK A01 T01861034  RH  022%=      5-min Rain = 0
KQU1 132007Z 20012KT 19/M04 A2987 RMK A01 T01851037  RH  022%=      5-min Rain = 0
KQU1 132008Z 21011KT 19/M04 A2987 RMK A01 T01851036  RH  022%=      5-min Rain = 0
KQU1 132009Z 22013KT 19/M04 A2987 RMK A01 T01851037  RH  022%=      5-min Rain = 0
KQU1 132010Z 24012KT 19/M04 A2987 RMK A01 T01861036  RH  022%=      5-min Rain = 0
KQU1 132011Z 24011KT 19/M04 A2987 RMK A01 T01871036  RH  022%=      5-min Rain = 0
KQU1 132012Z 24007KT 19/M04 A2987 RMK A01 T01871038  RH  021%=      5-min Rain = 0
KQU1 132013Z 22010KT 19/M04 A2987 RMK A01 T01871038  RH  022%=      5-min Rain = 0
KQU1 132014Z 22010KT 19/M04 A2987 RMK A01 T01871035  RH  022%=      5-min Rain = 0
KQU1 132015Z 22007KT 19/M04 A2987 RMK A01 T01871037  RH  022%=      5-min Rain = 0
KQU1 132016Z 25008KT 19/M04 A2987 RMK A01 T01881036  RH  022%=      5-min Rain = 0
KQU1 132017Z 23006KT 19/M04 A2987 RMK A01 T01891037  RH  021%=      5-min Rain = 0
KQU1 132018Z 24009KT 19/M03 A2987 RMK A01 T01901034  RH  022%=      5-min Rain = 0
KQU1 132019Z 24010KT 19/M04 A2987 RMK A01 T01921037  RH  021%=      5-min Rain = 0
KQU1 132020Z 22008KT 19/M04 A2987 RMK A01 T01921036  RH  021%=      5-min Rain = 0
KQU1 132021Z 20009KT 19/M04 A2987 RMK A01 T01931036  RH  021%=      5-min Rain = 0
KQU1 132022Z 20010KT 19/M04 A2987 RMK A01 T01921035  RH  021%=      5-min Rain = 0
KQU1 132023Z 22010KT 19/M04 A2987 RMK A01 T01931036  RH  021%=      5-min Rain = 0
KQU1 132024Z 25008KT 19/M04 A2987 RMK A01 T01931036  RH  021%=      5-min Rain = 0
KQU1 132025Z 24010G15KT 19/M04 A2987 RMK A01 T01931038  RH  021%=      5-min Rain = 0
KQU1 132026Z 23005KT 19/M04 A2987 RMK A01 T01931038  RH  021%=      5-min Rain = 0
KQU1 132027Z 25003KT 19/M04 A2987 RMK A01 T01931037  RH  021%=      5-min Rain = 0
KQU1 132028Z 22008KT 19/M04 A2987 RMK A01 T01941037  RH  021%=      5-min Rain = 0
KQU1 132029Z 23011KT 20/M04 A2987 RMK A01 T01951038  RH  020%=      5-min Rain = 0
KQU1 132030Z 23009KT 20/M04 A2987 RMK A01 T01951038  RH  020%=      5-min Rain = 0
KQU1 132031Z 24007KT 20/M04 A2987 RMK A01 T01961038  RH  020%=      5-min Rain = 0
KQU1 132032Z 22007KT 20/M04 A2987 RMK A01 T01951040  RH  020%=      5-min Rain = 0
KQU1 132033Z 22011KT 20/M04 A2987 RMK A01 T01951035  RH  021%=      5-min Rain = 0
KQU1 132034Z 23011KT 19/M03 A2987 RMK A01 T01941034  RH  021%=      5-min Rain = 0
KQU1 132035Z 21010KT 19/M04 A2987 RMK A01 T01931035  RH  021%=      5-min Rain = 0
KQU1 132036Z 18007KT 19/M03 A2987 RMK A01 T01921033  RH  022%=      5-min Rain = 0
KQU1 132037Z 18009KT 19/M03 A2987 RMK A01 T01931032  RH  022%=      5-min Rain = 0
KQU1 132038Z 19009KT 19/M03 A2987 RMK A01 T01941032  RH  021%=      5-min Rain = 0
KQU1 132039Z 19011KT 19/M03 A2987 RMK A01 T01941032  RH  021%=      5-min Rain = 0
KQU1 132040Z 19011KT 19/M03 A2987 RMK A01 T01931032  RH  022%=      5-min Rain = 0
KQU1 132041Z 18010KT 19/M03 A2987 RMK A01 T01921032  RH  022%=      5-min Rain = 0
KQU1 132042Z 18009KT 19/M03 A2987 RMK A01 T01921029  RH  022%=      5-min Rain = 0
KQU1 132043Z 20009KT 19/M03 A2987 RMK A01 T01931030  RH  022%=      5-min Rain = 0
KQU1 132044Z 20008KT 19/M03 A2986 RMK A01 T01941030  RH  022%=      5-min Rain = 0
KQU1 132045Z 19006KT 19/M03 A2986 RMK A01 T01941030  RH  022%=      5-min Rain = 0
KQU1 132046Z 18008KT 20/M03 A2986 RMK A01 T01951030  RH  022%=      5-min Rain = 0
KQU1 132047Z 19007KT 20/M03 A2986 RMK A01 T01951031  RH  021%=      5-min Rain = 0
KQU1 132048Z 20009KT 20/M03 A2986 RMK A01 T01961032  RH  021%=      5-min Rain = 0
KQU1 132049Z 19009KT 20/M03 A2986 RMK A01 T01951033  RH  021%=      5-min Rain = 0
KQU1 132050Z 19012KT 19/M03 A2986 RMK A01 T01941032  RH  021%=      5-min Rain = 0
KQU1 132051Z 18009KT 19/M03 A2986 RMK A01 T01941034  RH  021%=      5-min Rain = 0
KQU1 132052Z 18008KT 19/M03 A2986 RMK A01 T01941032  RH  021%=      5-min Rain = 0
KQU1 132053Z 18008KT 20/M03 A2986 RMK A01 T01951033  RH  021%=      5-min Rain = 0
KQU1 132054Z 17007KT 20/M03 A2986 RMK A01 T01951034  RH  021%=      5-min Rain = 0
KQU1 132055Z 19008KT 20/M03 A2986 RMK A01 T01961033  RH  021%=      5-min Rain = 0
KQU1 132056Z 21006KT 20/M03 A2986 RMK A01 T01971034  RH  021%=      5-min Rain = 0
KQU1 132057Z 21007KT 20/M04 A2986 RMK A01 T01971036  RH  020%=      5-min Rain = 0
KQU1 132058Z 21006KT 20/M04 A2986 RMK A01 T01971035  RH  021%=      5-min Rain = 0
KQU1 132059Z 20009KT 20/M03 A2986 RMK A01 T01981031  RH  021%=      5-min Rain = 0
KQU1 132100Z 19008KT 20/M03 A2986 RMK A01 T01991033  RH  021%=      5-min Rain = 0
KQU1 132101Z 18006KT 20/M03 A2986 RMK A01 T01991032  RH  021%=      5-min Rain = 0
KQU1 132102Z 19005KT 20/M03 A2986 RMK A01 T01991033  RH  021%=      5-min Rain = 0
KQU1 132103Z 20005KT 20/M03 A2986 RMK A01 T02001032  RH  021%=      5-min Rain = 0
KQU1 132104Z 21005KT 20/M03 A2986 RMK A01 T02001034  RH  020%=      5-min Rain = 0
KQU1 132105Z 21005KT 20/M04 A2986 RMK A01 T01991035  RH  020%=      5-min Rain = 0
KQU1 132106Z 21004KT 20/M03 A2986 RMK A01 T02001033  RH  020%=      5-min Rain = 0
KQU1 132107Z 18009KT 20/M03 A2986 RMK A01 T02021031  RH  021%=      5-min Rain = 0
KQU1 132108Z 18007KT 20/M03 A2986 RMK A01 T02021034  RH  020%=      5-min Rain = 0
KQU1 132109Z 17007KT 20/M03 A2986 RMK A01 T02011034  RH  020%=      5-min Rain = 0
KQU1 132110Z 19007KT 20/M03 A2986 RMK A01 T02011034  RH  020%=      5-min Rain = 0
KQU1 132111Z 19004KT 20/M03 A2987 RMK A01 T02001034  RH  020%=      5-min Rain = 0
KQU1 132112Z 20005KT 20/M03 A2987 RMK A01 T02011032  RH  021%=      5-min Rain = 0
KQU1 132113Z 19005KT 20/M03 A2987 RMK A01 T02001032  RH  021%=      5-min Rain = 0
KQU1 132114Z 17005KT 20/M03 A2987 RMK A01 T02001030  RH  021%=      5-min Rain = 0
KQU1 132115Z 18006KT 20/M03 A2987 RMK A01 T02011030  RH  021%=      5-min Rain = 0
KQU1 132116Z 16006KT 20/M03 A2987 RMK A01 T02001030  RH  021%=      5-min Rain = 0
KQU1 132117Z 18004KT 20/M03 A2987 RMK A01 T02001028  RH  021%=      5-min Rain = 0
KQU1 132118Z 18004KT 20/M03 A2987 RMK A01 T02021028  RH  021%=      5-min Rain = 0
KQU1 132119Z 19007KT 20/M03 A2987 RMK A01 T02021029  RH  021%=      5-min Rain = 0
KQU1 132120Z 18006KT 20/M03 A2987 RMK A01 T02011033  RH  020%=      5-min Rain = 0
KQU1 132121Z 20006KT 20/M03 A2987 RMK A01 T02011030  RH  021%=      5-min Rain = 0
KQU1 132122Z 19006KT 20/M03 A2987 RMK A01 T02011031  RH  021%=      5-min Rain = 0
KQU1 132123Z 16007KT 20/M03 A2987 RMK A01 T02011029  RH  021%=      5-min Rain = 0
KQU1 132124Z 17007KT 20/M03 A2987 RMK A01 T02011029  RH  021%=      5-min Rain = 0
KQU1 132125Z 18005KT 20/M03 A2987 RMK A01 T02011029  RH  021%=      5-min Rain = 0
KQU1 132126Z 16005KT 20/M03 A2987 RMK A01 T02011030  RH  021%=      5-min Rain = 0
KQU1 132127Z 14003KT 20/M03 A2987 RMK A01 T02011029  RH  021%=      5-min Rain = 0
KQU1 132128Z 17003KT 20/M03 A2987 RMK A01 T02021026  RH  021%=      5-min Rain = 0
KQU1 132129Z 18004KT 20/M03 A2987 RMK A01 T02031030  RH  021%=      5-min Rain = 0
KQU1 132130Z 20005KT 20/M03 A2987 RMK A01 T02031029  RH  021%=      5-min Rain = 0
KQU1 132131Z 18002KT 20/M03 A2988 RMK A01 T02041029  RH  021%=      5-min Rain = 0
KQU1 132132Z 16000KT 21/M03 A2988 RMK A01 T02051028  RH  021%=      5-min Rain = 0
KQU1 132133Z 07001KT 21/M03 A2988 RMK A01 T02061028  RH  021%=      5-min Rain = 0
KQU1 132134Z 05005KT 21/M03 A2988 RMK A01 T02071026  RH  021%=      5-min Rain = 0
KQU1 132135Z 09005KT 21/M03 A2988 RMK A01 T02061027  RH  021%=      5-min Rain = 0
KQU1 132136Z 15004KT 21/M03 A2988 RMK A01 T02061029  RH  020%=      5-min Rain = 0
KQU1 132137Z 15004KT 21/M03 A2988 RMK A01 T02051028  RH  021%=      5-min Rain = 0
KQU1 132138Z 14006KT 21/M03 A2988 RMK A01 T02051029  RH  020%=      5-min Rain = 0
KQU1 132139Z 14006KT 21/M03 A2988 RMK A01 T02051030  RH  020%=      5-min Rain = 0
KQU1 132140Z 13003KT 21/M03 A2988 RMK A01 T02051029  RH  020%=      5-min Rain = 0
KQU1 132141Z 11003KT 21/M03 A2988 RMK A01 T02051029  RH  020%=      5-min Rain = 0
KQU1 132142Z 15002KT 21/M03 A2988 RMK A01 T02051030  RH  020%=      5-min Rain = 0
KQU1 132143Z 13003KT 21/M03 A2988 RMK A01 T02051029  RH  020%=      5-min Rain = 0
KQU1 132144Z 10002KT 21/M03 A2988 RMK A01 T02061030  RH  020%=      5-min Rain = 0
KQU1 132145Z 12004KT 21/M03 A2988 RMK A01 T02071028  RH  020%=      5-min Rain = 0
KQU1 132146Z 08004KT 21/M03 A2988 RMK A01 T02071028  RH  020%=      5-min Rain = 0
KQU1 132147Z 05003KT 21/M03 A2988 RMK A01 T02071030  RH  020%=      5-min Rain = 0
KQU1 132148Z 02003KT 21/M03 A2988 RMK A01 T02061029  RH  020%=      5-min Rain = 0
KQU1 132149Z 03002KT 20/M03 A2988 RMK A01 T02041028  RH  021%=      5-min Rain = 0
KQU1 132150Z 06003KT 20/M03 A2988 RMK A01 T02041027  RH  021%=      5-min Rain = 0
KQU1 132151Z 03002KT 20/M03 A2988 RMK A01 T02031027  RH  021%=      5-min Rain = 0
KQU1 132152Z 00002KT 20/M03 A2988 RMK A01 T02021027  RH  021%=      5-min Rain = 0
KQU1 132153Z 02004KT 20/M03 A2988 RMK A01 T02021028  RH  021%=      5-min Rain = 0
KQU1 132154Z 04004KT 20/M03 A2988 RMK A01 T02021029  RH  021%=      5-min Rain = 0
KQU1 132155Z 04004KT 20/M03 A2988 RMK A01 T02011030  RH  021%=      5-min Rain = 0
KQU1 132156Z 04004KT 20/M03 A2988 RMK A01 T02011031  RH  021%=      5-min Rain = 0
KQU1 132157Z 05006KT 20/M03 A2988 RMK A01 T02011033  RH  020%=      5-min Rain = 0
KQU1 132158Z 05006KT 20/M04 A2988 RMK A01 T02011036  RH  020%=      5-min Rain = 0
KQU1 132159Z 04006KT 20/M04 A2988 RMK A01 T02011043  RH  019%=      5-min Rain = 0
KQU1 132200Z 03005KT 20/M04 A2988 RMK A01 T02011043  RH  019%=      5-min Rain = 0
KQU1 132201Z 01006G11KT 20/M05 A2988 RMK A01 T02011047  RH  018%=      5-min Rain = 0
KQU1 132202Z 03007KT 20/M05 A2988 RMK A01 T02011049  RH  018%=      5-min Rain = 0
KQU1 132203Z 02008KT 20/M05 A2988 RMK A01 T02011050  RH  018%=      5-min Rain = 0
KQU1 132204Z 02007KT 20/M05 A2988 RMK A01 T02001052  RH  018%=      5-min Rain = 0
KQU1 132205Z 03007KT 20/M05 A2988 RMK A01 T02001054  RH  018%=      5-min Rain = 0
KQU1 132206Z 02006KT 20/M05 A2988 RMK A01 T02001054  RH  018%=      5-min Rain = 0
KQU1 132207Z 02003KT 20/M05 A2989 RMK A01 T02001050  RH  018%=      5-min Rain = 0
KQU1 132208Z 03003KT 20/M05 A2989 RMK A01 T02001049  RH  018%=      5-min Rain = 0
KQU1 132209Z 03006KT 20/M05 A2989 RMK A01 T02011047  RH  018%=      5-min Rain = 0
KQU1 132210Z 01005KT 20/M05 A2989 RMK A01 T02011049  RH  018%=      5-min Rain = 0
KQU1 132211Z 35004KT 20/M05 A2989 RMK A01 T02001047  RH  018%=      5-min Rain = 0
KQU1 132212Z 01004KT 20/M05 A2989 RMK A01 T02001048  RH  018%=      5-min Rain = 0
KQU1 132213Z 02008KT 20/M05 A2989 RMK A01 T02001048  RH  018%=      5-min Rain = 0
KQU1 132214Z 03010KT 20/M05 A2989 RMK A01 T01991051  RH  018%=      5-min Rain = 0
KQU1 132215Z 02008KT 20/M05 A2989 RMK A01 T01981052  RH  018%=      5-min Rain = 0
KQU1 132216Z 02006KT 20/M05 A2989 RMK A01 T01971050  RH  018%=      5-min Rain = 0
KQU1 132217Z 01003KT 20/M05 A2989 RMK A01 T01971051  RH  018%=      5-min Rain = 0
KQU1 132218Z 36004KT 20/M05 A2989 RMK A01 T01971052  RH  018%=      5-min Rain = 0
KQU1 132219Z 01005KT 20/M06 A2989 RMK A01 T01971055  RH  018%=      5-min Rain = 0
KQU1 132220Z 03005KT 20/M05 A2989 RMK A01 T01961052  RH  018%=      5-min Rain = 0
KQU1 132221Z 02008KT 20/M06 A2989 RMK A01 T01961055  RH  018%=      5-min Rain = 0
KQU1 132222Z 02009KT 20/M06 A2989 RMK A01 T01951058  RH  018%=      5-min Rain = 0
KQU1 132223Z 01008KT 20/M06 A2989 RMK A01 T01951060  RH  017%=      5-min Rain = 0
KQU1 132224Z 00005G10KT 19/M06 A2989 RMK A01 T01941057  RH  018%=      5-min Rain = 0
KQU1 132225Z 00004KT 19/M06 A2989 RMK A01 T01941055  RH  018%=      5-min Rain = 0
KQU1 132226Z 00007KT 19/M06 A2989 RMK A01 T01941057  RH  018%=      5-min Rain = 0
KQU1 132227Z 01003KT 19/M06 A2989 RMK A01 T01941056  RH  018%=      5-min Rain = 0
KQU1 132228Z 36005KT 19/M06 A2989 RMK A01 T01941060  RH  017%=      5-min Rain = 0
KQU1 132229Z 36005KT 19/M06 A2989 RMK A01 T01941061  RH  017%=      5-min Rain = 0
KQU1 132230Z 02004KT 19/M06 A2989 RMK A01 T01941056  RH  018%=      5-min Rain = 0
KQU1 132231Z 03006KT 19/M05 A2989 RMK A01 T01941052  RH  018%=      5-min Rain = 0
KQU1 132232Z 02008KT 19/M05 A2989 RMK A01 T01931054  RH  018%=      5-min Rain = 0
KQU1 132233Z 03006KT 19/M05 A299 RMK A01 T01931054  RH  018%=      5-min Rain = 0
KQU1 132234Z 01005KT 19/M05 A299 RMK A01 T01931049  RH  019%=      5-min Rain = 0
KQU1 132235Z 03005G10KT 19/M05 A299 RMK A01 T01931046  RH  019%=      5-min Rain = 0
KQU1 132236Z 01006KT 19/M05 A299 RMK A01 T01921052  RH  019%=      5-min Rain = 0
KQU1 132237Z 01006KT 19/M05 A299 RMK A01 T01911052  RH  019%=      5-min Rain = 0
KQU1 132238Z 01006KT 19/M05 A299 RMK A01 T01901053  RH  019%=      5-min Rain = 0
KQU1 132239Z 02007KT 19/M05 A299 RMK A01 T01901051  RH  019%=      5-min Rain = 0
KQU1 132240Z 01004KT 19/M05 A299 RMK A01 T01891048  RH  020%=      5-min Rain = 0
KQU1 132241Z 00006KT 19/M05 A299 RMK A01 T01891048  RH  020%=      5-min Rain = 0
KQU1 132242Z 02004KT 19/M05 A299 RMK A01 T01891048  RH  020%=      5-min Rain = 0
KQU1 132243Z 01003KT 19/M05 A299 RMK A01 T01891048  RH  020%=      5-min Rain = 0
KQU1 132244Z 02003KT 19/M05 A299 RMK A01 T01891045  RH  020%=      5-min Rain = 0
KQU1 132245Z 02005KT 19/M04 A299 RMK A01 T01891041  RH  021%=      5-min Rain = 0
KQU1 132246Z 02007KT 19/M04 A299 RMK A01 T01891037  RH  021%=      5-min Rain = 0
KQU1 132247Z 04008KT 19/M03 A299 RMK A01 T01871032  RH  022%=      5-min Rain = 0
KQU1 132248Z 03010KT 19/M03 A299 RMK A01 T01861030  RH  023%=      5-min Rain = 0
KQU1 132249Z 04011KT 19/M03 A299 RMK A01 T01861027  RH  024%=      5-min Rain = 0
KQU1 132250Z 04009KT 19/M03 A299 RMK A01 T01851026  RH  024%=      5-min Rain = 0
KQU1 132251Z 04009KT 18/M03 A2991 RMK A01 T01841026  RH  024%=      5-min Rain = 0
KQU1 132252Z 04009KT 18/M03 A2991 RMK A01 T01841027  RH  024%=      5-min Rain = 0
KQU1 132253Z 04008KT 18/M03 A2991 RMK A01 T01841027  RH  024%=      5-min Rain = 0
KQU1 132254Z 06008KT 18/M03 A2991 RMK A01 T01841027  RH  024%=      5-min Rain = 0
KQU1 132255Z 07009KT 18/M03 A2991 RMK A01 T01841026  RH  024%=      5-min Rain = 0
KQU1 132256Z 07008KT 18/M02 A2991 RMK A01 T01831024  RH  024%=      5-min Rain = 0
KQU1 132257Z 07009KT 18/M02 A2991 RMK A01 T01831023  RH  025%=      5-min Rain = 0
KQU1 132258Z 07009KT 18/M02 A2991 RMK A01 T01821023  RH  025%=      5-min Rain = 0
KQU1 132259Z 07008KT 18/M02 A2991 RMK A01 T01811022  RH  025%=      5-min Rain = 0
KQU1 132300Z 07007KT 18/M02 A2991 RMK A01 T01801021  RH  025%=      5-min Rain = 0
KQU1 132301Z 07007KT 18/M02 A2991 RMK A01 T01801021  RH  025%=      5-min Rain = 0
KQU1 132302Z 07007KT 18/M02 A2991 RMK A01 T01791020  RH  026%=      5-min Rain = 0
KQU1 132303Z 08006KT 18/M02 A2991 RMK A01 T01791020  RH  026%=      5-min Rain = 0
KQU1 132304Z 08008KT 18/M02 A2991 RMK A01 T01781020  RH  026%=      5-min Rain = 0
KQU1 132305Z 08008KT 18/M02 A2991 RMK A01 T01771021  RH  026%=      5-min Rain = 0
KQU1 132306Z 08007KT 18/M02 A2991 RMK A01 T01761021  RH  026%=      5-min Rain = 0
KQU1 132307Z 07007KT 18/M02 A2991 RMK A01 T01761020  RH  026%=      5-min Rain = 0
KQU1 132308Z 07007KT 18/M02 A2992 RMK A01 T01751020  RH  026%=      5-min Rain = 0
KQU1 132309Z 07007KT 17/M02 A2992 RMK A01 T01741020  RH  027%=      5-min Rain = 0
KQU1 132310Z 07008KT 17/M02 A2992 RMK A01 T01731020  RH  027%=      5-min Rain = 0
KQU1 132311Z 07008KT 17/M02 A2992 RMK A01 T01721020  RH  027%=      5-min Rain = 0
KQU1 132312Z 07008KT 17/M02 A2992 RMK A01 T01711020  RH  027%=      5-min Rain = 0
KQU1 132313Z 07009KT 17/M02 A2992 RMK A01 T01701019  RH  027%=      5-min Rain = 0
KQU1 132314Z 07010KT 17/M02 A2992 RMK A01 T01681018  RH  028%=      5-min Rain = 0
KQU1 132315Z 07009KT 17/M02 A2992 RMK A01 T01671016  RH  029%=      5-min Rain = 0
KQU1 132316Z 08008KT 17/M02 A2992 RMK A01 T01661015  RH  029%=      5-min Rain = 0
KQU1 132317Z 08009KT 17/M01 A2992 RMK A01 T01651014  RH  029%=      5-min Rain = 0
KQU1 132318Z 08008KT 16/M01 A2992 RMK A01 T01641013  RH  030%=      5-min Rain = 0
KQU1 132319Z 08008KT 16/M01 A2992 RMK A01 T01621012  RH  030%=      5-min Rain = 0
KQU1 132320Z 08007KT 16/M01 A2992 RMK A01 T01611012  RH  031%=      5-min Rain = 0
KQU1 132321Z 07007KT 16/M01 A2992 RMK A01 T01601011  RH  031%=      5-min Rain = 0
KQU1 132322Z 08007KT 16/M01 A2992 RMK A01 T01591011  RH  031%=      5-min Rain = 0
KQU1 132323Z 08007KT 16/M01 A2992 RMK A01 T01581010  RH  032%=      5-min Rain = 0
KQU1 132324Z 08006KT 16/M01 A2993 RMK A01 T01571010  RH  032%=      5-min Rain = 0
KQU1 132325Z 08006KT 16/M01 A2993 RMK A01 T01561010  RH  032%=      5-min Rain = 0
KQU1 132326Z 08006KT 16/M01 A2993 RMK A01 T01551010  RH  032%=      5-min Rain = 0
KQU1 132327Z 07006KT 15/M01 A2993 RMK A01 T01531010  RH  033%=      5-min Rain = 0
KQU1 132328Z 07006KT 15/M01 A2993 RMK A01 T01521010  RH  033%=      5-min Rain = 0
KQU1 132329Z 08006KT 15/M01 A2993 RMK A01 T01501010  RH  033%=      5-min Rain = 0
KQU1 132330Z 09007KT 15/M01 A2993 RMK A01 T01491010  RH  034%=      5-min Rain = 0
KQU1 132331Z 08007KT 15/M01 A2993 RMK A01 T01471009  RH  034%=      5-min Rain = 0
KQU1 132332Z 09008KT 15/M01 A2993 RMK A01 T01461008  RH  035%=      5-min Rain = 0
KQU1 132333Z 10007KT 15/M01 A2993 RMK A01 T01461008  RH  035%=      5-min Rain = 0
KQU1 132334Z 10007KT 15/M01 A2993 RMK A01 T01451007  RH  035%=      5-min Rain = 0
KQU1 132335Z 09007KT 14/M01 A2993 RMK A01 T01441007  RH  035%=      5-min Rain = 0
KQU1 132336Z 09006KT 14/M01 A2993 RMK A01 T01431006  RH  036%=      5-min Rain = 0
KQU1 132337Z 10006KT 14/M01 A2993 RMK A01 T01421006  RH  036%=      5-min Rain = 0
KQU1 132338Z 09006KT 14/M01 A2993 RMK A01 T01411006  RH  036%=      5-min Rain = 0
KQU1 132339Z 09005KT 14/M01 A2993 RMK A01 T01401006  RH  037%=      5-min Rain = 0
KQU1 132340Z 09005KT 14/M01 A2993 RMK A01 T01381006  RH  037%=      5-min Rain = 0
KQU1 132341Z 09005KT 14/M01 A2993 RMK A01 T01371006  RH  037%=      5-min Rain = 0
KQU1 132342Z 09005KT 14/M01 A2993 RMK A01 T01361006  RH  038%=      5-min Rain = 0
KQU1 132343Z 09005KT 14/M01 A2993 RMK A01 T01351006  RH  038%=      5-min Rain = 0
KQU1 132344Z 09005KT 13/M01 A2993 RMK A01 T01331005  RH  038%=      5-min Rain = 0
KQU1 132345Z 10005KT 13/M01 A2993 RMK A01 T01321005  RH  039%=      5-min Rain = 0
KQU1 132346Z 09005KT 13/M01 A2993 RMK A01 T01311005  RH  039%=      5-min Rain = 0
KQU1 132347Z 09005KT 13/M00 A2993 RMK A01 T01301004  RH  039%=      5-min Rain = 0
KQU1 132348Z 10006KT 13/M00 A2993 RMK A01 T01291004  RH  040%=      5-min Rain = 0
KQU1 132349Z 10005KT 13/M00 A2993 RMK A01 T01291003  RH  040%=      5-min Rain = 0
KQU1 132350Z 10005KT 13/M00 A2993 RMK A01 T01281003  RH  041%=      5-min Rain = 0
KQU1 132351Z 09005KT 13/M00 A2993 RMK A01 T01271002  RH  041%=      5-min Rain = 0
KQU1 132352Z 09005KT 13/M00 A2994 RMK A01 T01261002  RH  041%=      5-min Rain = 0
KQU1 132353Z 09005KT 13/M00 A2994 RMK A01 T01251001  RH  042%=      5-min Rain = 0
KQU1 132354Z 08004KT 13/M00 A2994 RMK A01 T01251001  RH  042%=      5-min Rain = 0
KQU1 132355Z 08004KT 12/00 A2994 RMK A01 T01240000  RH  042%=      5-min Rain = 0
KQU1 132356Z 08004KT 12/00 A2994 RMK A01 T01240001  RH  043%=      5-min Rain = 0
KQU1 132357Z 08004KT 12/00 A2994 RMK A01 T01240001  RH  043%=      5-min Rain = 0
KQU1 132358Z 09004KT 12/00 A2994 RMK A01 T01240001  RH  043%=      5-min Rain = 0
KQU1 132359Z 09005KT 12/00 A2994 RMK A01 T01240001  RH  043%=      5-min Rain = 0
KQU1 140000Z 09004KT 12/00 A2994 RMK A01 T01230001  RH  043%=      5-min Rain = 0
KQU1 140001Z 09004KT 12/00 A2994 RMK A01 T01230001  RH  043%=      5-min Rain = 0
KQU1 140002Z 10004KT 12/00 A2994 RMK A01 T01220001  RH  043%=      5-min Rain = 0
KQU1 140003Z 09005KT 12/00 A2994 RMK A01 T01220001  RH  043%=      5-min Rain = 0
KQU1 140004Z 09004KT 12/00 A2994 RMK A01 T01210001  RH  043%=      5-min Rain = 0
KQU1 140005Z 10005KT 12/00 A2994 RMK A01 T01210001  RH  044%=      5-min Rain = 0
KQU1 140006Z 10005KT 12/00 A2995 RMK A01 T01200000  RH  044%=      5-min Rain = 0
KQU1 140007Z 09005KT 12/00 A2995 RMK A01 T01200000  RH  044%=      5-min Rain = 0
KQU1 140008Z 09005KT 12/00 A2995 RMK A01 T01190000  RH  044%=      5-min Rain = 0
KQU1 140009Z 10006KT 12/00 A2995 RMK A01 T01180000  RH  044%=      5-min Rain = 0
KQU1 140010Z 11006KT 12/00 A2995 RMK A01 T01180001  RH  044%=      5-min Rain = 0
KQU1 140011Z 10006KT 12/00 A2995 RMK A01 T01170001  RH  045%=      5-min Rain = 0
KQU1 140012Z 09006KT 12/00 A2995 RMK A01 T01170000  RH  045%=      5-min Rain = 0
KQU1 140013Z 08006KT 12/00 A2995 RMK A01 T01160001  RH  045%=      5-min Rain = 0
KQU1 140014Z 08006KT 12/00 A2995 RMK A01 T01150001  RH  046%=      5-min Rain = 0
KQU1 140015Z 09006KT 11/00 A2995 RMK A01 T01140002  RH  046%=      5-min Rain = 0
KQU1 140016Z 10005KT 11/00 A2995 RMK A01 T01140001  RH  046%=      5-min Rain = 0
KQU1 140017Z 11005KT 11/00 A2995 RMK A01 T01130001  RH  046%=      5-min Rain = 0
KQU1 140018Z 11006KT 11/00 A2995 RMK A01 T01130001  RH  046%=      5-min Rain = 0
KQU1 140019Z 11005KT 11/00 A2995 RMK A01 T01120001  RH  046%=      5-min Rain = 0
KQU1 140020Z 12005KT 11/00 A2995 RMK A01 T01110001  RH  047%=      5-min Rain = 0
KQU1 140021Z 12005KT 11/00 A2995 RMK A01 T01100001  RH  047%=      5-min Rain = 0
KQU1 140022Z 12005KT 11/00 A2996 RMK A01 T01090000  RH  047%=      5-min Rain = 0
KQU1 140023Z 10004KT 11/00 A2996 RMK A01 T01090000  RH  047%=      5-min Rain = 0
KQU1 140024Z 07003KT 11/00 A2996 RMK A01 T01080001  RH  048%=      5-min Rain = 0
KQU1 140025Z 04003KT 11/00 A2996 RMK A01 T01070004  RH  049%=      5-min Rain = 0
KQU1 140026Z 04002KT 10/01 A2996 RMK A01 T01040006  RH  050%=      5-min Rain = 0
KQU1 140027Z 36000KT 10/01 A2996 RMK A01 T01030005  RH  051%=      5-min Rain = 0
KQU1 140028Z 28000KT 10/00 A2996 RMK A01 T01020004  RH  051%=      5-min Rain = 0
KQU1 140029Z 00000KT 10/00 A2996 RMK A01 T01020004  RH  050%=      5-min Rain = 0
KQU1 140030Z 00000KT 10/00 A2996 RMK A01 T01000000  RH  050%=      5-min Rain = 0
KQU1 140031Z 00000KT 10/00 A2996 RMK A01 T009800-0  RH  050%=      5-min Rain = 0
KQU1 140032Z 32001KT 10/00 A2996 RMK A01 T00970000  RH  051%=      5-min Rain = 0
KQU1 140033Z 32000KT 10/00 A2996 RMK A01 T00960000  RH  051%=      5-min Rain = 0
KQU1 140034Z 00000KT 10/00 A2996 RMK A01 T00950000  RH  052%=      5-min Rain = 0
KQU1 140035Z 00000KT 10/00 A2996 RMK A01 T00950002  RH  052%=      5-min Rain = 0
KQU1 140036Z 00000KT 10/00 A2996 RMK A01 T00950001  RH  052%=      5-min Rain = 0
KQU1 140037Z 00000KT 10/01 A2996 RMK A01 T00970005  RH  052%=      5-min Rain = 0
KQU1 140038Z 03000KT 10/01 A2997 RMK A01 T01000005  RH  052%=      5-min Rain = 0
KQU1 140039Z 03002KT 10/00 A2997 RMK A01 T01000003  RH  051%=      5-min Rain = 0
KQU1 140040Z 01004KT 10/01 A2997 RMK A01 T00980006  RH  053%=      5-min Rain = 0
KQU1 140041Z 01004KT 10/01 A2997 RMK A01 T00970005  RH  053%=      5-min Rain = 0
KQU1 140042Z 02003KT 10/01 A2997 RMK A01 T00970005  RH  053%=      5-min Rain = 0
KQU1 140043Z 02003KT 10/01 A2997 RMK A01 T00990006  RH  052%=      5-min Rain = 0
KQU1 140044Z 04003KT 10/01 A2997 RMK A01 T01020007  RH  052%=      5-min Rain = 0
KQU1 140045Z 08002KT 10/01 A2997 RMK A01 T01030006  RH  051%=      5-min Rain = 0
KQU1 140046Z 07002KT 10/01 A2997 RMK A01 T01030005  RH  051%=      5-min Rain = 0
KQU1 140047Z 09002KT 10/00 A2997 RMK A01 T01030004  RH  050%=      5-min Rain = 0
KQU1 140048Z 11003KT 10/00 A2997 RMK A01 T01030004  RH  050%=      5-min Rain = 0
KQU1 140049Z 09003KT 10/00 A2997 RMK A01 T01020004  RH  051%=      5-min Rain = 0
KQU1 140050Z 09002KT 10/00 A2997 RMK A01 T01020004  RH  050%=      5-min Rain = 0
KQU1 140051Z 10003KT 10/00 A2997 RMK A01 T01020003  RH  050%=      5-min Rain = 0
KQU1 140052Z 10002KT 10/00 A2997 RMK A01 T01010002  RH  050%=      5-min Rain = 0
KQU1 140053Z 10002KT 10/00 A2997 RMK A01 T01000002  RH  051%=      5-min Rain = 0
KQU1 140054Z 10002KT 10/00 A2997 RMK A01 T01000002  RH  051%=      5-min Rain = 0
KQU1 140055Z 10002KT 10/00 A2997 RMK A01 T00990002  RH  051%=      5-min Rain = 0
KQU1 140056Z 10002KT 10/00 A2997 RMK A01 T00990002  RH  051%=      5-min Rain = 0
KQU1 140057Z 09003KT 10/00 A2998 RMK A01 T00980002  RH  051%=      5-min Rain = 0
KQU1 140058Z 08002KT 10/00 A2998 RMK A01 T00970000  RH  051%=      5-min Rain = 0
KQU1 140059Z 05001KT 09/M00 A2998 RMK A01 T00931004  RH  051%=      5-min Rain = 0
KQU1 140100Z 02001KT 09/M01 A2998 RMK A01 T00861009  RH  051%=      5-min Rain = 0
KQU1 140101Z 02002KT 08/M01 A2998 RMK A01 T00801009  RH  053%=      5-min Rain = 0
KQU1 140102Z 01002KT 07/M01 A2998 RMK A01 T00741010  RH  055%=      5-min Rain = 0
KQU1 140103Z 35002KT 07/M01 A2998 RMK A01 T00711010  RH  056%=      5-min Rain = 0
KQU1 140104Z 34003KT 07/M01 A2998 RMK A01 T00681010  RH  057%=      5-min Rain = 0
KQU1 140105Z 35003KT 07/M01 A2998 RMK A01 T00661010  RH  058%=      5-min Rain = 0
KQU1 140106Z 34003KT 07/M01 A2998 RMK A01 T00671006  RH  060%=      5-min Rain = 0
KQU1 140107Z 36003KT 07/M01 A2998 RMK A01 T00691005  RH  059%=      5-min Rain = 0
KQU1 140108Z 00003KT 07/M00 A2998 RMK A01 T00701004  RH  059%=      5-min Rain = 0
KQU1 140109Z 02003KT 07/M01 A2998 RMK A01 T00701006  RH  058%=      5-min Rain = 0
KQU1 140110Z 01003KT 07/M01 A2998 RMK A01 T00691006  RH  059%=      5-min Rain = 0
KQU1 140111Z 01003KT 07/M01 A2998 RMK A01 T00701005  RH  059%=      5-min Rain = 0
KQU1 140112Z 01003KT 07/M00 A2999 RMK A01 T00711004  RH  059%=      5-min Rain = 0
KQU1 140113Z 01003KT 07/M01 A2999 RMK A01 T00711005  RH  058%=      5-min Rain = 0
KQU1 140114Z 04004KT 07/M01 A2999 RMK A01 T00701005  RH  059%=      5-min Rain = 0
KQU1 140115Z 03004KT 07/M00 A2999 RMK A01 T00721001  RH  060%=      5-min Rain = 0
KQU1 140116Z 02003KT 08/00 A2999 RMK A01 T00750001  RH  060%=      5-min Rain = 0
KQU1 140117Z 04004KT 08/00 A2999 RMK A01 T00780003  RH  059%=      5-min Rain = 0
KQU1 140118Z 04003KT 08/00 A2999 RMK A01 T00800002  RH  058%=      5-min Rain = 0
KQU1 140119Z 03003KT 08/00 A2999 RMK A01 T00810003  RH  058%=      5-min Rain = 0
KQU1 140120Z 03003KT 08/00 A2999 RMK A01 T00830003  RH  057%=      5-min Rain = 0
KQU1 140121Z 05002KT 08/00 A2999 RMK A01 T00840002  RH  056%=      5-min Rain = 0
KQU1 140122Z 03002KT 09/00 A2999 RMK A01 T00850003  RH  056%=      5-min Rain = 0
KQU1 140123Z 05002KT 09/00 A2999 RMK A01 T00860002  RH  056%=      5-min Rain = 0
KQU1 140124Z 02003KT 09/00 A2999 RMK A01 T00850001  RH  055%=      5-min Rain = 0
KQU1 140125Z 02003KT 08/M00 A2999 RMK A01 T00841001  RH  055%=      5-min Rain = 0
KQU1 140126Z 01003KT 08/00 A2999 RMK A01 T00820001  RH  057%=      5-min Rain = 0
KQU1 140127Z 36003KT 08/00 A2999 RMK A01 T00810003  RH  058%=      5-min Rain = 0
KQU1 140128Z 34002KT 08/00 A2999 RMK A01 T00800001  RH  058%=      5-min Rain = 0
KQU1 140129Z 00003KT 08/M00 A2999 RMK A01 T00781003  RH  057%=      5-min Rain = 0
KQU1 140130Z 01003KT 08/M00 A2999 RMK A01 T00751004  RH  057%=      5-min Rain = 0
KQU1 140131Z 02002KT 08/M00 A2999 RMK A01 T00751001  RH  058%=      5-min Rain = 0
KQU1 140132Z 01002KT 08/M00 A2999 RMK A01 T00761002  RH  058%=      5-min Rain = 0
KQU1 140133Z 02003KT 08/M00 A2999 RMK A01 T00761002  RH  058%=      5-min Rain = 0
KQU1 140134Z 01003KT 08/M00 A2999 RMK A01 T00751004  RH  057%=      5-min Rain = 0
KQU1 140135Z 35004KT 07/M01 A2999 RMK A01 T00721006  RH  058%=      5-min Rain = 0
KQU1 140136Z 34004KT 07/M01 A30 RMK A01 T00701007  RH  058%=      5-min Rain = 0
KQU1 140137Z 35004KT 07/M01 A30 RMK A01 T00651010  RH  059%=      5-min Rain = 0
KQU1 140138Z 01004KT 06/M01 A30 RMK A01 T00621010  RH  060%=      5-min Rain = 0
KQU1 140139Z 01004KT 06/M01 A30 RMK A01 T00621007  RH  061%=      5-min Rain = 0
KQU1 140140Z 02003KT 06/M01 A30 RMK A01 T00621007  RH  061%=      5-min Rain = 0
KQU1 140141Z 04003KT 06/M00 A30 RMK A01 T00641002  RH  063%=      5-min Rain = 0
KQU1 140142Z 05001KT 07/M00 A30 RMK A01 T00671001  RH  062%=      5-min Rain = 0
KQU1 140143Z 07002KT 07/00 A30 RMK A01 T00700001  RH  061%=      5-min Rain = 0
KQU1 140144Z 09003KT 07/00 A30 RMK A01 T00730002  RH  061%=      5-min Rain = 0
KQU1 140145Z 07002KT 07/00 A30 RMK A01 T00740002  RH  060%=      5-min Rain = 0
KQU1 140146Z 07002KT 08/00 A30 RMK A01 T00760003  RH  060%=      5-min Rain = 0
KQU1 140147Z 06001KT 08/00 A30 RMK A01 T00770003  RH  059%=      5-min Rain = 0
KQU1 140148Z 03001KT 08/00 A30 RMK A01 T00780003  RH  059%=      5-min Rain = 0
KQU1 140149Z 01002KT 08/00 A30 RMK A01 T00790003  RH  058%=      5-min Rain = 0
KQU1 140150Z 35002KT 08/00 A30 RMK A01 T00780002  RH  058%=      5-min Rain = 0
KQU1 140151Z 34003KT 08/M00 A30 RMK A01 T00771001  RH  058%=      5-min Rain = 0
KQU1 140152Z 34002KT 08/M00 A30 RMK A01 T00751002  RH  058%=      5-min Rain = 0
KQU1 140153Z 35002KT 07/M00 A3001 RMK A01 T00731004  RH  058%=      5-min Rain = 0
KQU1 140154Z 36001KT 07/M01 A3001 RMK A01 T00721005  RH  058%=      5-min Rain = 0
KQU1 140155Z 35001KT 07/M01 A3001 RMK A01 T00701006  RH  059%=      5-min Rain = 0
KQU1 140156Z 05000KT 07/M01 A3001 RMK A01 T00681006  RH  059%=      5-min Rain = 0
KQU1 140157Z 06001KT 07/M00 A3001 RMK A01 T00681004  RH  060%=      5-min Rain = 0
KQU1 140158Z 08000KT 07/M00 A3001 RMK A01 T00681004  RH  060%=      5-min Rain = 0
KQU1 140159Z 03000KT 07/M00 A3001 RMK A01 T00691002  RH  060%=      5-min Rain = 0
KQU1 140200Z 02000KT 07/M00 A3001 RMK A01 T00701002  RH  060%=      5-min Rain = 0
KQU1 140201Z 02001KT 07/M00 A3001 RMK A01 T00701002  RH  060%=      5-min Rain = 0
KQU1 140202Z 34001KT 07/M00 A3001 RMK A01 T00711002  RH  060%=      5-min Rain = 0
KQU1 140203Z 34002KT 07/M00 A3001 RMK A01 T00711003  RH  059%=      5-min Rain = 0
KQU1 140204Z 36002KT 07/M01 A3001 RMK A01 T00691005  RH  060%=      5-min Rain = 0
KQU1 140205Z 33002KT 07/M00 A3001 RMK A01 T00681004  RH  060%=      5-min Rain = 0
KQU1 140206Z 33003KT 07/M01 A3001 RMK A01 T00661006  RH  060%=      5-min Rain = 0
KQU1 140207Z 33003KT 06/M01 A3001 RMK A01 T00631008  RH  061%=      5-min Rain = 0
KQU1 140208Z 34002KT 06/M01 A3001 RMK A01 T00601008  RH  062%=      5-min Rain = 0
KQU1 140209Z 34003KT 06/M01 A3001 RMK A01 T00581008  RH  063%=      5-min Rain = 0
KQU1 140210Z 34003KT 06/M01 A3001 RMK A01 T00571007  RH  063%=      5-min Rain = 0
KQU1 140211Z 34003KT 06/M01 A3001 RMK A01 T00571007  RH  063%=      5-min Rain = 0
KQU1 140212Z 35003KT 06/M01 A3001 RMK A01 T00561008  RH  063%=      5-min Rain = 0
KQU1 140213Z 35003KT 06/M01 A3001 RMK A01 T00551008  RH  064%=      5-min Rain = 0
KQU1 140214Z 01003KT 05/M01 A3001 RMK A01 T00541008  RH  064%=      5-min Rain = 0
KQU1 140215Z 01003KT 06/M01 A3001 RMK A01 T00551006  RH  065%=      5-min Rain = 0
KQU1 140216Z 02004KT 06/M00 A3001 RMK A01 T00571002  RH  066%=      5-min Rain = 0
KQU1 140217Z 04003KT 06/00 A3001 RMK A01 T00620002  RH  065%=      5-min Rain = 0
KQU1 140218Z 03002KT 07/00 A3001 RMK A01 T00660002  RH  064%=      5-min Rain = 0
KQU1 140219Z 03002KT 07/00 A3001 RMK A01 T00690002  RH  063%=      5-min Rain = 0
KQU1 140220Z 03002KT 07/00 A3001 RMK A01 T00690000  RH  061%=      5-min Rain = 0
KQU1 140221Z 35003KT 07/00 A3001 RMK A01 T007000-0  RH  061%=      5-min Rain = 0
KQU1 140222Z 33003KT 07/M00 A3001 RMK A01 T00671004  RH  060%=      5-min Rain = 0
KQU1 140223Z 34003KT 06/M01 A3001 RMK A01 T00641005  RH  061%=      5-min Rain = 0
KQU1 140224Z 33002KT 06/M01 A3001 RMK A01 T00611008  RH  061%=      5-min Rain = 0
KQU1 140225Z 34002KT 06/M01 A3001 RMK A01 T00571009  RH  062%=      5-min Rain = 0
KQU1 140226Z 34002KT 06/M01 A3001 RMK A01 T00551009  RH  063%=      5-min Rain = 0
KQU1 140227Z 36002KT 05/M01 A3001 RMK A01 T00521011  RH  064%=      5-min Rain = 0
KQU1 140228Z 33002KT 05/M01 A3002 RMK A01 T00511011  RH  064%=      5-min Rain = 0
KQU1 140229Z 32003KT 05/M01 A3002 RMK A01 T00491011  RH  065%=      5-min Rain = 0
KQU1 140230Z 32002KT 05/M01 A3002 RMK A01 T00481011  RH  065%=      5-min Rain = 0
KQU1 140231Z 36002KT 05/M01 A3002 RMK A01 T00471011  RH  066%=      5-min Rain = 0
KQU1 140232Z 03002KT 05/M01 A3002 RMK A01 T00471011  RH  066%=      5-min Rain = 0
KQU1 140233Z 34002KT 05/M01 A3002 RMK A01 T00461011  RH  066%=      5-min Rain = 0
KQU1 140234Z 33002KT 05/M01 A3002 RMK A01 T00451012  RH  066%=      5-min Rain = 0
KQU1 140235Z 32002KT 04/M01 A3002 RMK A01 T00441013  RH  067%=      5-min Rain = 0
KQU1 140236Z 31003KT 04/M01 A3002 RMK A01 T00431012  RH  068%=      5-min Rain = 0
KQU1 140237Z 32003KT 04/M01 A3002 RMK A01 T00431010  RH  068%=      5-min Rain = 0
KQU1 140238Z 31003KT 04/M01 A3002 RMK A01 T00441011  RH  068%=      5-min Rain = 0
KQU1 140239Z 31003KT 04/M01 A3002 RMK A01 T00431012  RH  067%=      5-min Rain = 0
KQU1 140240Z 31003KT 04/M01 A3002 RMK A01 T00421013  RH  068%=      5-min Rain = 0
KQU1 140241Z 32003KT 04/M01 A3002 RMK A01 T00401013  RH  068%=      5-min Rain = 0
KQU1 140242Z 31004KT 04/M01 A3002 RMK A01 T00381014  RH  069%=      5-min Rain = 0
KQU1 140243Z 32004KT 04/M01 A3002 RMK A01 T00371013  RH  070%=      5-min Rain = 0
KQU1 140244Z 31005KT 04/M01 A3002 RMK A01 T00361013  RH  070%=      5-min Rain = 0
KQU1 140245Z 31005KT 04/M01 A3002 RMK A01 T00351013  RH  070%=      5-min Rain = 0
KQU1 140246Z 31005KT 04/M01 A3002 RMK A01 T00351013  RH  071%=      5-min Rain = 0
KQU1 140247Z 32005KT 04/M01 A3002 RMK A01 T00361012  RH  071%=      5-min Rain = 0
KQU1 140248Z 32006KT 04/M01 A3003 RMK A01 T00361012  RH  071%=      5-min Rain = 0
KQU1 140249Z 33005KT 04/M01 A3003 RMK A01 T00361012  RH  071%=      5-min Rain = 0
KQU1 140250Z 32004KT 04/M01 A3002 RMK A01 T00361011  RH  071%=      5-min Rain = 0
KQU1 140251Z 33003KT 04/M01 A3002 RMK A01 T00361012  RH  071%=      5-min Rain = 0
KQU1 140252Z 34003KT 04/M01 A3002 RMK A01 T00361012  RH  071%=      5-min Rain = 0
KQU1 140253Z 35003KT 04/M01 A3002 RMK A01 T00361012  RH  071%=      5-min Rain = 0
KQU1 140254Z 35003KT 04/M01 A3003 RMK A01 T00361012  RH  071%=      5-min Rain = 0
KQU1 140255Z 33003KT 04/M01 A3003 RMK A01 T00351011  RH  072%=      5-min Rain = 0
KQU1 140256Z 33002KT 04/M01 A3003 RMK A01 T00351012  RH  071%=      5-min Rain = 0
KQU1 140257Z 33002KT 03/M01 A3003 RMK A01 T00341013  RH  071%=      5-min Rain = 0
KQU1 140258Z 34002KT 03/M01 A3003 RMK A01 T00331013  RH  072%=      5-min Rain = 0
KQU1 140259Z 35003KT 03/M01 A3003 RMK A01 T00331013  RH  072%=      5-min Rain = 0
KQU1 140300Z 34003KT 03/M01 A3003 RMK A01 T00321013  RH  072%=      5-min Rain = 0
KQU1 140301Z 33003KT 03/M01 A3003 RMK A01 T00321012  RH  073%=      5-min Rain = 0
KQU1 140302Z 33003KT 03/M01 A3003 RMK A01 T00341010  RH  073%=      5-min Rain = 0
KQU1 140303Z 32003KT 03/M01 A3003 RMK A01 T00341011  RH  072%=      5-min Rain = 0
KQU1 140304Z 32004KT 03/M01 A3003 RMK A01 T00321013  RH  072%=      5-min Rain = 0
KQU1 140305Z 33005KT 03/M01 A3003 RMK A01 T00321012  RH  073%=      5-min Rain = 0
KQU1 140306Z 33005KT 03/M01 A3003 RMK A01 T00311012  RH  073%=      5-min Rain = 0
KQU1 140307Z 32005KT 03/M01 A3004 RMK A01 T00311012  RH  074%=      5-min Rain = 0
KQU1 140308Z 31004KT 03/M01 A3004 RMK A01 T00321010  RH  074%=      5-min Rain = 0
KQU1 140309Z 32004KT 03/M01 A3004 RMK A01 T00341009  RH  074%=      5-min Rain = 0
KQU1 140310Z 32005KT 03/M01 A3004 RMK A01 T00341010  RH  073%=      5-min Rain = 0
KQU1 140311Z 32005KT 03/M01 A3004 RMK A01 T00341010  RH  073%=      5-min Rain = 0
KQU1 140312Z 33005KT 03/M01 A3004 RMK A01 T00341010  RH  073%=      5-min Rain = 0
KQU1 140313Z 33005KT 03/M01 A3004 RMK A01 T00321011  RH  073%=      5-min Rain = 0
KQU1 140314Z 34004KT 03/M01 A3004 RMK A01 T00321011  RH  073%=      5-min Rain = 0
KQU1 140315Z 34004KT 03/M01 A3004 RMK A01 T00321010  RH  074%=      5-min Rain = 0
KQU1 140316Z 34003KT 03/M01 A3004 RMK A01 T00321010  RH  074%=      5-min Rain = 0
KQU1 140317Z 35003KT 03/M01 A3004 RMK A01 T00321011  RH  074%=      5-min Rain = 0
KQU1 140318Z 35004KT 03/M01 A3004 RMK A01 T00321011  RH  074%=      5-min Rain = 0
KQU1 140319Z 35004KT 03/M01 A3004 RMK A01 T00311011  RH  074%=      5-min Rain = 0
KQU1 140320Z 35004KT 03/M01 A3005 RMK A01 T00331008  RH  074%=      5-min Rain = 0
KQU1 140321Z 35004KT 03/M01 A3005 RMK A01 T00341008  RH  074%=      5-min Rain = 0
KQU1 140322Z 34003KT 04/M01 A3005 RMK A01 T00351007  RH  074%=      5-min Rain = 0
KQU1 140323Z 34003KT 04/M01 A3005 RMK A01 T00371005  RH  074%=      5-min Rain = 0
KQU1 140324Z 34003KT 04/M01 A3005 RMK A01 T00371007  RH  073%=      5-min Rain = 0
KQU1 140325Z 35003KT 04/M01 A3005 RMK A01 T00371008  RH  073%=      5-min Rain = 0
KQU1 140326Z 35004KT 04/M01 A3005 RMK A01 T00371007  RH  073%=      5-min Rain = 0
KQU1 140327Z 00004KT 04/M01 A3005 RMK A01 T00381005  RH  073%=      5-min Rain = 0
KQU1 140328Z 35002KT 04/M00 A3005 RMK A01 T00401004  RH  073%=      5-min Rain = 0
KQU1 140329Z 35002KT 04/M00 A3005 RMK A01 T00421002  RH  073%=      5-min Rain = 0
KQU1 140330Z 34003KT 04/M00 A3005 RMK A01 T00431003  RH  072%=      5-min Rain = 0
KQU1 140331Z 34003KT 04/M01 A3005 RMK A01 T00431005  RH  071%=      5-min Rain = 0
KQU1 140332Z 35004KT 04/M00 A3006 RMK A01 T00441003  RH  071%=      5-min Rain = 0
KQU1 140333Z 34004KT 05/M00 A3006 RMK A01 T00461003  RH  071%=      5-min Rain = 0
KQU1 140334Z 34004KT 05/M01 A3006 RMK A01 T00451006  RH  069%=      5-min Rain = 0
KQU1 140335Z 34004KT 04/M01 A3006 RMK A01 T00431008  RH  070%=      5-min Rain = 0
KQU1 140336Z 34004KT 04/M01 A3006 RMK A01 T00411008  RH  070%=      5-min Rain = 0
KQU1 140337Z 34004KT 04/M01 A3006 RMK A01 T00401008  RH  071%=      5-min Rain = 0
KQU1 140338Z 34005KT 04/M01 A3006 RMK A01 T00391008  RH  071%=      5-min Rain = 0
KQU1 140339Z 34004KT 04/M01 A3006 RMK A01 T00381008  RH  072%=      5-min Rain = 0
KQU1 140340Z 34004KT 04/M01 A3006 RMK A01 T00371009  RH  072%=      5-min Rain = 0
KQU1 140341Z 33003KT 04/M01 A3006 RMK A01 T00351010  RH  072%=      5-min Rain = 0
KQU1 140342Z 33004KT 03/M01 A3006 RMK A01 T00341011  RH  073%=      5-min Rain = 0
KQU1 140343Z 33004KT 03/M01 A3006 RMK A01 T00321012  RH  073%=      5-min Rain = 0
KQU1 140344Z 33004KT 03/M01 A3006 RMK A01 T00311011  RH  074%=      5-min Rain = 0
KQU1 140345Z 33005KT 03/M01 A3006 RMK A01 T00301011  RH  074%=      5-min Rain = 0
KQU1 140346Z 33005KT 03/M01 A3006 RMK A01 T00291011  RH  075%=      5-min Rain = 0
KQU1 140347Z 32005KT 03/M01 A3006 RMK A01 T00281011  RH  075%=      5-min Rain = 0
KQU1 140348Z 33005KT 03/M01 A3007 RMK A01 T00281011  RH  075%=      5-min Rain = 0
KQU1 140349Z 33005KT 03/M01 A3007 RMK A01 T00281011  RH  075%=      5-min Rain = 0
KQU1 140350Z 33005KT 03/M01 A3007 RMK A01 T00281011  RH  076%=      5-min Rain = 0
KQU1 140351Z 32006KT 03/M01 A3007 RMK A01 T00281011  RH  076%=      5-min Rain = 0
KQU1 140352Z 33006KT 03/M01 A3007 RMK A01 T00281011  RH  076%=      5-min Rain = 0
KQU1 140353Z 32005KT 03/M01 A3007 RMK A01 T00281011  RH  076%=      5-min Rain = 0
KQU1 140354Z 33005KT 03/M01 A3007 RMK A01 T00271011  RH  076%=      5-min Rain = 0
KQU1 140355Z 34004KT 03/M01 A3007 RMK A01 T00271011  RH  076%=      5-min Rain = 0
KQU1 140356Z 32004KT 03/M01 A3007 RMK A01 T00271011  RH  076%=      5-min Rain = 0
KQU1 140357Z 32005KT 03/M01 A3007 RMK A01 T00271012  RH  076%=      5-min Rain = 0
KQU1 140358Z 31004KT 03/M01 A3007 RMK A01 T00261012  RH  076%=      5-min Rain = 0
KQU1 140359Z 31005KT 03/M01 A3007 RMK A01 T00261012  RH  076%=      5-min Rain = 0
KQU1 140400Z 32005KT 03/M01 A3007 RMK A01 T00261012  RH  076%=      5-min Rain = 0
KQU1 140401Z 32005KT 03/M01 A3007 RMK A01 T00261012  RH  076%=      5-min Rain = 0
KQU1 140402Z 32005KT 03/M01 A3007 RMK A01 T00261012  RH  076%=      5-min Rain = 0
KQU1 140403Z 32004KT 03/M01 A3007 RMK A01 T00261011  RH  076%=      5-min Rain = 0
KQU1 140404Z 32004KT 03/M01 A3007 RMK A01 T00261011  RH  077%=      5-min Rain = 0
KQU1 140405Z 31004KT 03/M01 A3007 RMK A01 T00261012  RH  076%=      5-min Rain = 0
KQU1 140406Z 31005KT 03/M01 A3007 RMK A01 T00261011  RH  077%=      5-min Rain = 0
KQU1 140407Z 31005KT 03/M01 A3007 RMK A01 T00261010  RH  077%=      5-min Rain = 0
KQU1 140408Z 31005KT 03/M01 A3007 RMK A01 T00271010  RH  077%=      5-min Rain = 0
KQU1 140409Z 30004KT 03/M01 A3008 RMK A01 T00271010  RH  076%=      5-min Rain = 0
KQU1 140410Z 29004KT 03/M01 A3008 RMK A01 T00271011  RH  076%=      5-min Rain = 0
KQU1 140411Z 29005KT 03/M01 A3008 RMK A01 T00271011  RH  076%=      5-min Rain = 0
KQU1 140412Z 29005KT 03/M01 A3008 RMK A01 T00261012  RH  076%=      5-min Rain = 0
KQU1 140413Z 30004KT 03/M01 A3008 RMK A01 T00251012  RH  076%=      5-min Rain = 0
KQU1 140414Z 32005KT 03/M01 A3008 RMK A01 T00251012  RH  077%=      5-min Rain = 0
KQU1 140415Z 31005KT 03/M01 A3008 RMK A01 T00251013  RH  077%=      5-min Rain = 0
KQU1 140416Z 32004KT 02/M01 A3008 RMK A01 T00241013  RH  077%=      5-min Rain = 0
KQU1 140417Z 33004KT 02/M01 A3008 RMK A01 T00231013  RH  077%=      5-min Rain = 0
KQU1 140418Z 33003KT 02/M01 A3008 RMK A01 T00231013  RH  077%=      5-min Rain = 0
KQU1 140419Z 34003KT 02/M01 A3008 RMK A01 T00231013  RH  077%=      5-min Rain = 0
KQU1 140420Z 33003KT 02/M01 A3008 RMK A01 T00231013  RH  077%=      5-min Rain = 0
KQU1 140421Z 33003KT 02/M01 A3008 RMK A01 T00231013  RH  077%=      5-min Rain = 0
KQU1 140422Z 33003KT 02/M01 A3008 RMK A01 T00231012  RH  077%=      5-min Rain = 0
KQU1 140423Z 35002KT 02/M01 A3008 RMK A01 T00241012  RH  078%=      5-min Rain = 0
KQU1 140424Z 35003KT 03/M01 A3008 RMK A01 T00251010  RH  078%=      5-min Rain = 0
KQU1 140425Z 34003KT 03/M01 A3008 RMK A01 T00251011  RH  077%=      5-min Rain = 0
KQU1 140426Z 35003KT 03/M01 A3008 RMK A01 T00251011  RH  077%=      5-min Rain = 0
KQU1 140427Z 35004KT 03/M01 A3008 RMK A01 T00261010  RH  077%=      5-min Rain = 0
KQU1 140428Z 35003KT 03/M01 A3008 RMK A01 T00271010  RH  077%=      5-min Rain = 0
KQU1 140429Z 36004KT 03/M01 A3008 RMK A01 T00281009  RH  077%=      5-min Rain = 0
KQU1 140430Z 36003KT 03/M01 A3008 RMK A01 T00281009  RH  077%=      5-min Rain = 0
KQU1 140431Z 36004KT 03/M01 A3008 RMK A01 T00301006  RH  077%=      5-min Rain = 0
KQU1 140432Z 36003KT 03/M00 A3008 RMK A01 T00321004  RH  077%=      5-min Rain = 0
KQU1 140433Z 36003KT 03/M00 A3008 RMK A01 T00341003  RH  077%=      5-min Rain = 0
KQU1 140434Z 35003KT 04/M00 A3008 RMK A01 T00361003  RH  076%=      5-min Rain = 0
KQU1 140435Z 00004KT 04/M00 A3008 RMK A01 T00371002  RH  076%=      5-min Rain = 0
KQU1 140436Z 35004KT 04/M00 A3008 RMK A01 T00381002  RH  075%=      5-min Rain = 0
KQU1 140437Z 36004KT 04/M00 A3008 RMK A01 T00391001  RH  075%=      5-min Rain = 0
KQU1 140438Z 35004KT 04/M00 A3008 RMK A01 T00401001  RH  074%=      5-min Rain = 0
KQU1 140439Z 35005KT 04/M00 A3008 RMK A01 T00411001  RH  074%=      5-min Rain = 0
KQU1 140440Z 35005KT 04/M00 A3008 RMK A01 T00411001  RH  074%=      5-min Rain = 0
KQU1 140441Z 00006KT 04/00 A3008 RMK A01 T004200-0  RH  074%=      5-min Rain = 0
KQU1 140442Z 00007KT 04/00 A3008 RMK A01 T00430000  RH  073%=      5-min Rain = 0
KQU1 140443Z 00007KT 05/00 A3008 RMK A01 T00450000  RH  073%=      5-min Rain = 0
KQU1 140444Z 36007KT 05/00 A3008 RMK A01 T004600-0  RH  072%=      5-min Rain = 0
KQU1 140445Z 36008KT 05/M00 A3008 RMK A01 T00481001  RH  071%=      5-min Rain = 0
KQU1 140446Z 36008KT 05/M00 A3009 RMK A01 T00491001  RH  070%=      5-min Rain = 0
KQU1 140447Z 00009KT 05/M00 A3009 RMK A01 T00491002  RH  070%=      5-min Rain = 0
KQU1 140448Z 35007KT 05/M00 A3009 RMK A01 T00501002  RH  069%=      5-min Rain = 0
KQU1 140449Z 00008KT 05/M00 A3009 RMK A01 T00501002  RH  069%=      5-min Rain = 0
KQU1 140450Z 00009KT 05/M00 A3009 RMK A01 T00501002  RH  069%=      5-min Rain = 0
KQU1 140451Z 35009KT 05/M00 A3009 RMK A01 T00511003  RH  068%=      5-min Rain = 0
KQU1 140452Z 36008KT 05/M00 A3009 RMK A01 T00511002  RH  068%=      5-min Rain = 0
KQU1 140453Z 35008KT 05/M00 A3009 RMK A01 T00511002  RH  068%=      5-min Rain = 0
KQU1 140454Z 36009KT 05/M00 A3009 RMK A01 T00511002  RH  068%=      5-min Rain = 0
KQU1 140455Z 35009KT 05/M00 A3009 RMK A01 T00521003  RH  068%=      5-min Rain = 0
KQU1 140456Z 36008KT 05/M00 A3009 RMK A01 T00521003  RH  068%=      5-min Rain = 0
KQU1 140457Z 35008KT 05/M00 A3009 RMK A01 T00531003  RH  067%=      5-min Rain = 0
KQU1 140458Z 36006KT 05/M00 A3009 RMK A01 T00531004  RH  067%=      5-min Rain = 0
KQU1 140459Z 35007KT 05/M00 A3009 RMK A01 T00531004  RH  067%=      5-min Rain = 0
KQU1 140500Z 35008KT 05/M00 A3009 RMK A01 T00531003  RH  067%=      5-min Rain = 0
KQU1 140501Z 35007KT 05/M00 A3009 RMK A01 T00531003  RH  067%=      5-min Rain = 0
KQU1 140502Z 35007KT 05/M00 A3009 RMK A01 T00531003  RH  067%=      5-min Rain = 0
KQU1 140503Z 35008KT 05/M00 A3009 RMK A01 T00531004  RH  067%=      5-min Rain = 0
KQU1 140504Z 00006KT 05/M00 A3009 RMK A01 T00531004  RH  067%=      5-min Rain = 0
KQU1 140505Z 35006KT 05/M00 A3009 RMK A01 T00531004  RH  067%=      5-min Rain = 0
KQU1 140506Z 35006KT 05/M00 A3009 RMK A01 T00531004  RH  067%=      5-min Rain = 0
KQU1 140507Z 35007KT 05/M00 A3009 RMK A01 T00531004  RH  067%=      5-min Rain = 0
KQU1 140508Z 35006KT 05/M00 A3009 RMK A01 T00531004  RH  067%=      5-min Rain = 0
KQU1 140509Z 36007KT 05/M00 A3009 RMK A01 T00531004  RH  067%=      5-min Rain = 0
KQU1 140510Z 35008KT 05/M00 A3009 RMK A01 T00531004  RH  066%=      5-min Rain = 0
KQU1 140511Z 35008KT 05/M00 A3009 RMK A01 T00541004  RH  066%=      5-min Rain = 0
KQU1 140512Z 35007KT 05/M00 A301 RMK A01 T00541004  RH  066%=      5-min Rain = 0
KQU1 140513Z 35007KT 05/M00 A301 RMK A01 T00541004  RH  066%=      5-min Rain = 0
KQU1 140514Z 36007KT 06/M00 A301 RMK A01 T00551004  RH  066%=      5-min Rain = 0
KQU1 140515Z 35007KT 06/M00 A301 RMK A01 T00551004  RH  066%=      5-min Rain = 0
KQU1 140516Z 35006G11KT 06/M00 A301 RMK A01 T00561004  RH  066%=      5-min Rain = 0
KQU1 140517Z 35007KT 06/M00 A301 RMK A01 T00571004  RH  065%=      5-min Rain = 0
KQU1 140518Z 35009KT 06/M00 A301 RMK A01 T00581004  RH  065%=      5-min Rain = 0
KQU1 140519Z 36008KT 06/M00 A301 RMK A01 T00581004  RH  064%=      5-min Rain = 0
KQU1 140520Z 35008KT 06/M00 A301 RMK A01 T00581004  RH  064%=      5-min Rain = 0
KQU1 140521Z 35006KT 06/M00 A301 RMK A01 T00591004  RH  064%=      5-min Rain = 0
KQU1 140522Z 35007KT 06/M00 A301 RMK A01 T00591004  RH  064%=      5-min Rain = 0
KQU1 140523Z 36007KT 06/M00 A301 RMK A01 T00581004  RH  064%=      5-min Rain = 0
KQU1 140524Z 35007KT 06/M00 A301 RMK A01 T00581004  RH  064%=      5-min Rain = 0
KQU1 140525Z 35007KT 06/M00 A301 RMK A01 T00581004  RH  064%=      5-min Rain = 0
KQU1 140526Z 35006KT 06/M00 A301 RMK A01 T00581004  RH  064%=      5-min Rain = 0
KQU1 140527Z 35007KT 06/M00 A301 RMK A01 T00581004  RH  064%=      5-min Rain = 0
KQU1 140528Z 35007KT 06/M00 A301 RMK A01 T00581004  RH  064%=      5-min Rain = 0
KQU1 140529Z 35008KT 06/M00 A301 RMK A01 T00591004  RH  064%=      5-min Rain = 0
KQU1 140530Z 35007KT 06/M00 A301 RMK A01 T00591004  RH  064%=      5-min Rain = 0
KQU1 140531Z 35007KT 06/M00 A301 RMK A01 T00591004  RH  064%=      5-min Rain = 0
KQU1 140532Z 35007KT 06/M00 A301 RMK A01 T00591004  RH  064%=      5-min Rain = 0
KQU1 140533Z 34007KT 06/M00 A301 RMK A01 T00591004  RH  064%=      5-min Rain = 0
KQU1 140534Z 34008KT 06/M00 A301 RMK A01 T00591004  RH  064%=      5-min Rain = 0
KQU1 140535Z 35008KT 06/M01 A301 RMK A01 T00591005  RH  063%=      5-min Rain = 0
KQU1 140536Z 34007KT 06/M01 A301 RMK A01 T00591005  RH  063%=      5-min Rain = 0
KQU1 140537Z 34008KT 06/M01 A301 RMK A01 T00591005  RH  063%=      5-min Rain = 0
KQU1 140538Z 34007KT 06/M01 A301 RMK A01 T00591006  RH  063%=      5-min Rain = 0
KQU1 140539Z 34007KT 06/M01 A301 RMK A01 T00591006  RH  063%=      5-min Rain = 0
KQU1 140540Z 34006KT 06/M01 A301 RMK A01 T00591006  RH  063%=      5-min Rain = 0
KQU1 140541Z 34007KT 06/M01 A301 RMK A01 T00581006  RH  063%=      5-min Rain = 0
KQU1 140542Z 34007KT 06/M01 A301 RMK A01 T00581006  RH  063%=      5-min Rain = 0
KQU1 140543Z 35007KT 06/M01 A301 RMK A01 T00581005  RH  064%=      5-min Rain = 0
KQU1 140544Z 34006KT 06/M01 A301 RMK A01 T00581006  RH  064%=      5-min Rain = 0
KQU1 140545Z 34007KT 06/M01 A301 RMK A01 T00581006  RH  063%=      5-min Rain = 0
KQU1 140546Z 35006KT 06/M01 A301 RMK A01 T00591006  RH  063%=      5-min Rain = 0
KQU1 140547Z 34006KT 06/M01 A301 RMK A01 T00601006  RH  063%=      5-min Rain = 0
KQU1 140548Z 34007KT 06/M01 A301 RMK A01 T00591006  RH  063%=      5-min Rain = 0
KQU1 140549Z 34007KT 06/M01 A301 RMK A01 T00591006  RH  063%=      5-min Rain = 0
KQU1 140550Z 34007KT 06/M01 A301 RMK A01 T00591007  RH  063%=      5-min Rain = 0
KQU1 140551Z 34007KT 06/M01 A301 RMK A01 T00591007  RH  063%=      5-min Rain = 0
KQU1 140552Z 35007KT 06/M01 A3011 RMK A01 T00591007  RH  063%=      5-min Rain = 0
KQU1 140553Z 34007KT 06/M01 A3011 RMK A01 T00581007  RH  063%=      5-min Rain = 0
KQU1 140554Z 35007KT 06/M01 A3011 RMK A01 T00581007  RH  063%=      5-min Rain = 0
KQU1 140555Z 36007KT 06/M01 A3011 RMK A01 T00581007  RH  063%=      5-min Rain = 0
KQU1 140556Z 35007KT 06/M01 A3011 RMK A01 T00571007  RH  063%=      5-min Rain = 0
KQU1 140557Z 36006KT 06/M01 A3011 RMK A01 T00571007  RH  063%=      5-min Rain = 0
KQU1 140558Z 35005KT 06/M01 A3011 RMK A01 T00571007  RH  064%=      5-min Rain = 0
KQU1 140559Z 35007KT 06/M01 A3011 RMK A01 T00561006  RH  064%=      5-min Rain = 0

Page generated in 0.0715 seconds.